Observation data for Fort Chadbourne on 05/24/2020      Previous  Date  Next       Current Mesonet Observations  Soil Data  Daily Summary Page  Observations in Plain Language
KCH1 240500Z 30008KT 22/16 A2985 RMK A01 T02200160  RH  069%=      5-min Rain = 0
KCH1 240501Z 30007KT 22/16 A2985 RMK A01 T02220160  RH  068%=      5-min Rain = 0
KCH1 240502Z 30007KT 22/16 A2985 RMK A01 T02230159  RH  067%=      5-min Rain = 0
KCH1 240503Z 30005KT 22/16 A2985 RMK A01 T02240159  RH  067%=      5-min Rain = 0
KCH1 240504Z 29005KT 22/16 A2985 RMK A01 T02240160  RH  067%=      5-min Rain = 0
KCH1 240505Z 28005KT 22/16 A2985 RMK A01 T02230160  RH  068%=      5-min Rain = 0
KCH1 240506Z 28004KT 22/16 A2985 RMK A01 T02220158  RH  067%=      5-min Rain = 0
KCH1 240507Z 28004KT 22/16 A2985 RMK A01 T02220157  RH  067%=      5-min Rain = 0
KCH1 240508Z 28004KT 22/16 A2984 RMK A01 T02220159  RH  067%=      5-min Rain = 0
KCH1 240509Z 27006KT 22/16 A2984 RMK A01 T02220158  RH  067%=      5-min Rain = 0
KCH1 240510Z 26005KT 22/16 A2985 RMK A01 T02220159  RH  068%=      5-min Rain = 0
KCH1 240511Z 27005KT 22/16 A2985 RMK A01 T02210159  RH  068%=      5-min Rain = 0
KCH1 240512Z 29006KT 22/16 A2985 RMK A01 T02200161  RH  069%=      5-min Rain = 0
KCH1 240513Z 29005KT 22/16 A2985 RMK A01 T02170163  RH  071%=      5-min Rain = 0
KCH1 240514Z 29006KT 22/16 A2985 RMK A01 T02160163  RH  072%=      5-min Rain = 0
KCH1 240515Z 29007KT 21/16 A2985 RMK A01 T02140164  RH  073%=      5-min Rain = 0
KCH1 240516Z 30010KT 21/16 A2985 RMK A01 T02140163  RH  073%=      5-min Rain = 0
KCH1 240517Z 31008KT 21/16 A2985 RMK A01 T02140163  RH  073%=      5-min Rain = 0
KCH1 240518Z 31008KT 21/16 A2985 RMK A01 T02120162  RH  073%=      5-min Rain = 0
KCH1 240519Z 31007KT 21/16 A2985 RMK A01 T02110161  RH  073%=      5-min Rain = 0
KCH1 240520Z 31006KT 21/16 A2985 RMK A01 T02090162  RH  074%=      5-min Rain = 0
KCH1 240521Z 31005KT 21/16 A2985 RMK A01 T02080162  RH  075%=      5-min Rain = 0
KCH1 240522Z 31006KT 21/16 A2985 RMK A01 T02070163  RH  075%=      5-min Rain = 0
KCH1 240523Z 30007KT 21/16 A2985 RMK A01 T02070162  RH  075%=      5-min Rain = 0
KCH1 240524Z 30007KT 21/16 A2985 RMK A01 T02060162  RH  076%=      5-min Rain = 0
KCH1 240525Z 31006KT 21/16 A2985 RMK A01 T02060162  RH  076%=      5-min Rain = 0
KCH1 240526Z 32006KT 21/16 A2985 RMK A01 T02050163  RH  077%=      5-min Rain = 0
KCH1 240527Z 35006KT 21/16 A2986 RMK A01 T02050163  RH  077%=      5-min Rain = 0
KCH1 240528Z 01005KT 20/17 A2986 RMK A01 T02040165  RH  078%=      5-min Rain = 0
KCH1 240529Z 03006KT 20/16 A2986 RMK A01 T02030164  RH  078%=      5-min Rain = 0
KCH1 240530Z 36006KT 20/16 A2986 RMK A01 T02020162  RH  078%=      5-min Rain = 0
KCH1 240531Z 32006KT 20/16 A2986 RMK A01 T02010162  RH  078%=      5-min Rain = 0
KCH1 240532Z 30006KT 20/16 A2986 RMK A01 T02000163  RH  079%=      5-min Rain = 0
KCH1 240533Z 29006KT 20/16 A2986 RMK A01 T01990164  RH  080%=      5-min Rain = 0
KCH1 240534Z 28006KT 20/16 A2986 RMK A01 T01990164  RH  080%=      5-min Rain = 0
KCH1 240535Z 28008KT 20/16 A2985 RMK A01 T01980164  RH  081%=      5-min Rain = 0
KCH1 240536Z 28007KT 20/16 A2985 RMK A01 T01980163  RH  080%=      5-min Rain = 0
KCH1 240537Z 28007KT 20/16 A2986 RMK A01 T01970164  RH  081%=      5-min Rain = 0
KCH1 240538Z 30005KT 20/16 A2986 RMK A01 T01970164  RH  081%=      5-min Rain = 0
KCH1 240539Z 34004KT 20/16 A2986 RMK A01 T01970164  RH  081%=      5-min Rain = 0
KCH1 240540Z 04005KT 20/17 A2986 RMK A01 T01970165  RH  082%=      5-min Rain = 0
KCH1 240541Z 06005KT 20/17 A2986 RMK A01 T01950165  RH  083%=      5-min Rain = 0
KCH1 240542Z 04002KT 19/17 A2986 RMK A01 T01940165  RH  083%=      5-min Rain = 0
KCH1 240543Z 35001KT 19/17 A2986 RMK A01 T01930165  RH  084%=      5-min Rain = 0
KCH1 240544Z 33000KT 19/17 A2986 RMK A01 T01930165  RH  084%=      5-min Rain = 0
KCH1 240545Z 06000KT 19/17 A2986 RMK A01 T01930165  RH  084%=      5-min Rain = 0
KCH1 240546Z 03001KT 19/16 A2986 RMK A01 T01920164  RH  084%=      5-min Rain = 0
KCH1 240547Z 01001KT 19/16 A2986 RMK A01 T01920164  RH  084%=      5-min Rain = 0
KCH1 240548Z 00001KT 19/17 A2986 RMK A01 T01920165  RH  084%=      5-min Rain = 0
KCH1 240549Z 36002KT 19/16 A2986 RMK A01 T01920164  RH  084%=      5-min Rain = 0
KCH1 240550Z 02002KT 19/17 A2986 RMK A01 T01920165  RH  084%=      5-min Rain = 0
KCH1 240551Z 04003KT 19/16 A2986 RMK A01 T01920164  RH  084%=      5-min Rain = 0
KCH1 240552Z 06002KT 19/17 A2986 RMK A01 T01910166  RH  085%=      5-min Rain = 0
KCH1 240553Z 06001KT 19/17 A2986 RMK A01 T01910165  RH  085%=      5-min Rain = 0
KCH1 240554Z 06001KT 19/17 A2985 RMK A01 T01910166  RH  085%=      5-min Rain = 0
KCH1 240555Z 06001KT 19/17 A2985 RMK A01 T01910167  RH  086%=      5-min Rain = 0
KCH1 240556Z 06000KT 19/17 A2986 RMK A01 T01900168  RH  087%=      5-min Rain = 0
KCH1 240557Z 06000KT 19/17 A2986 RMK A01 T01900170  RH  088%=      5-min Rain = 0
KCH1 240558Z 05001KT 19/17 A2986 RMK A01 T01900168  RH  087%=      5-min Rain = 0
KCH1 240559Z 06001KT 19/17 A2986 RMK A01 T01890166  RH  086%=      5-min Rain = 0
KCH1 240600Z 07002KT 19/17 A2986 RMK A01 T01890166  RH  086%=      5-min Rain = 0
KCH1 240601Z 07002KT 19/17 A2986 RMK A01 T01890165  RH  086%=      5-min Rain = 0
KCH1 240602Z 08002KT 19/17 A2986 RMK A01 T01890169  RH  088%=      5-min Rain = 0
KCH1 240603Z 09002KT 19/16 A2986 RMK A01 T01900164  RH  085%=      5-min Rain = 0
KCH1 240604Z 09002KT 19/17 A2986 RMK A01 T01890165  RH  086%=      5-min Rain = 0
KCH1 240605Z 08002KT 19/17 A2986 RMK A01 T01900169  RH  088%=      5-min Rain = 0
KCH1 240606Z 08002KT 19/17 A2986 RMK A01 T01900168  RH  087%=      5-min Rain = 0
KCH1 240607Z 08002KT 19/17 A2986 RMK A01 T01900165  RH  086%=      5-min Rain = 0
KCH1 240608Z 08003KT 19/16 A2986 RMK A01 T01890164  RH  085%=      5-min Rain = 0
KCH1 240609Z 08003KT 19/16 A2986 RMK A01 T01900163  RH  084%=      5-min Rain = 0
KCH1 240610Z 07004KT 19/16 A2986 RMK A01 T01900163  RH  084%=      5-min Rain = 0
KCH1 240611Z 07004KT 19/16 A2986 RMK A01 T01910162  RH  083%=      5-min Rain = 0
KCH1 240612Z 08005KT 19/16 A2986 RMK A01 T01920164  RH  084%=      5-min Rain = 0
KCH1 240613Z 08006KT 19/17 A2987 RMK A01 T01910166  RH  086%=      5-min Rain = 0
KCH1 240614Z 08007KT 19/17 A2987 RMK A01 T01890168  RH  087%=      5-min Rain = 0
KCH1 240615Z 08008KT 19/17 A2987 RMK A01 T01870167  RH  088%=      5-min Rain = 0
KCH1 240616Z 08008KT 19/16 A2987 RMK A01 T01870163  RH  086%=      5-min Rain = 0
KCH1 240617Z 06008KT 19/16 A2987 RMK A01 T01870161  RH  084%=      5-min Rain = 0
KCH1 240618Z 07008KT 19/16 A2987 RMK A01 T01880159  RH  083%=      5-min Rain = 0
KCH1 240619Z 07007KT 19/16 A2987 RMK A01 T01890159  RH  083%=      5-min Rain = 0
KCH1 240620Z 07007KT 19/16 A2987 RMK A01 T01890160  RH  083%=      5-min Rain = 0
KCH1 240621Z 07008KT 19/16 A2987 RMK A01 T01890159  RH  083%=      5-min Rain = 0
KCH1 240622Z 06007KT 19/16 A2986 RMK A01 T01890159  RH  082%=      5-min Rain = 0
KCH1 240623Z 06008KT 19/16 A2986 RMK A01 T01890159  RH  082%=      5-min Rain = 0
KCH1 240624Z 06007KT 19/16 A2987 RMK A01 T01890159  RH  083%=      5-min Rain = 0
KCH1 240625Z 07005KT 19/16 A2987 RMK A01 T01890159  RH  083%=      5-min Rain = 0
KCH1 240626Z 06006KT 19/16 A2987 RMK A01 T01880159  RH  083%=      5-min Rain = 0
KCH1 240627Z 05004KT 19/16 A2987 RMK A01 T01880159  RH  083%=      5-min Rain = 0
KCH1 240628Z 05004KT 19/16 A2987 RMK A01 T01880159  RH  083%=      5-min Rain = 0
KCH1 240629Z 06005KT 19/16 A2987 RMK A01 T01880158  RH  083%=      5-min Rain = 0
KCH1 240630Z 06004KT 19/16 A2987 RMK A01 T01880159  RH  083%=      5-min Rain = 0
KCH1 240631Z 06004KT 19/16 A2987 RMK A01 T01880159  RH  083%=      5-min Rain = 0
KCH1 240632Z 06003KT 19/16 A2987 RMK A01 T01870159  RH  083%=      5-min Rain = 0
KCH1 240633Z 07003KT 19/16 A2988 RMK A01 T01880160  RH  084%=      5-min Rain = 0
KCH1 240634Z 06002KT 19/16 A2988 RMK A01 T01880160  RH  084%=      5-min Rain = 0
KCH1 240635Z 05002KT 19/16 A2988 RMK A01 T01870160  RH  084%=      5-min Rain = 0
KCH1 240636Z 04001KT 19/16 A2987 RMK A01 T01870160  RH  084%=      5-min Rain = 0
KCH1 240637Z 02000KT 19/16 A2987 RMK A01 T01860159  RH  084%=      5-min Rain = 0
KCH1 240638Z 04000KT 19/16 A2987 RMK A01 T01860159  RH  084%=      5-min Rain = 0
KCH1 240639Z 05001KT 19/16 A2987 RMK A01 T01860160  RH  084%=      5-min Rain = 0
KCH1 240640Z 06001KT 19/16 A2987 RMK A01 T01860161  RH  085%=      5-min Rain = 0
KCH1 240641Z 07001KT 19/16 A2988 RMK A01 T01860160  RH  085%=      5-min Rain = 0
KCH1 240642Z 03002KT 19/16 A2988 RMK A01 T01860159  RH  084%=      5-min Rain = 0
KCH1 240643Z 04003KT 19/16 A2988 RMK A01 T01870159  RH  084%=      5-min Rain = 0
KCH1 240644Z 03002KT 19/16 A2988 RMK A01 T01870160  RH  084%=      5-min Rain = 0
KCH1 240645Z 01002KT 19/16 A2988 RMK A01 T01870160  RH  084%=      5-min Rain = 0
KCH1 240646Z 35001KT 19/16 A2988 RMK A01 T01870162  RH  085%=      5-min Rain = 0
KCH1 240647Z 33001KT 19/16 A2988 RMK A01 T01870162  RH  086%=      5-min Rain = 0
KCH1 240648Z 34001KT 19/16 A2988 RMK A01 T01870163  RH  086%=      5-min Rain = 0
KCH1 240649Z 36002KT 19/16 A2988 RMK A01 T01860163  RH  086%=      5-min Rain = 0
KCH1 240650Z 01002KT 19/16 A2988 RMK A01 T01860162  RH  086%=      5-min Rain = 0
KCH1 240651Z 00003KT 19/16 A2988 RMK A01 T01850162  RH  087%=      5-min Rain = 0
KCH1 240652Z 01003KT 19/16 A2988 RMK A01 T01850163  RH  087%=      5-min Rain = 0
KCH1 240653Z 03003KT 18/16 A2988 RMK A01 T01840162  RH  087%=      5-min Rain = 0
KCH1 240654Z 05003KT 18/16 A2988 RMK A01 T01840161  RH  087%=      5-min Rain = 0
KCH1 240655Z 03002KT 19/16 A2988 RMK A01 T01850161  RH  086%=      5-min Rain = 0
KCH1 240656Z 04002KT 19/16 A2988 RMK A01 T01850162  RH  086%=      5-min Rain = 0
KCH1 240657Z 06002KT 19/16 A2988 RMK A01 T01850162  RH  086%=      5-min Rain = 0
KCH1 240658Z 05001KT 19/16 A2988 RMK A01 T01850163  RH  087%=      5-min Rain = 0
KCH1 240659Z 04001KT 19/16 A2988 RMK A01 T01850163  RH  087%=      5-min Rain = 0
KCH1 240700Z 06001KT 19/16 A2988 RMK A01 T01850163  RH  087%=      5-min Rain = 0
KCH1 240701Z 04002KT 18/16 A2988 RMK A01 T01840162  RH  087%=      5-min Rain = 0
KCH1 240702Z 01002KT 19/16 A2988 RMK A01 T01850163  RH  087%=      5-min Rain = 0
KCH1 240703Z 01002KT 18/16 A2987 RMK A01 T01840163  RH  087%=      5-min Rain = 0
KCH1 240704Z 35002KT 18/16 A2987 RMK A01 T01840163  RH  087%=      5-min Rain = 0
KCH1 240705Z 34003KT 18/16 A2987 RMK A01 T01830163  RH  088%=      5-min Rain = 0
KCH1 240706Z 34003KT 18/16 A2987 RMK A01 T01830163  RH  088%=      5-min Rain = 0
KCH1 240707Z 34003KT 18/16 A2987 RMK A01 T01820163  RH  089%=      5-min Rain = 0
KCH1 240708Z 34004KT 18/16 A2987 RMK A01 T01820164  RH  089%=      5-min Rain = 0
KCH1 240709Z 34004KT 18/16 A2987 RMK A01 T01820164  RH  089%=      5-min Rain = 0
KCH1 240710Z 34004KT 18/16 A2987 RMK A01 T01810164  RH  089%=      5-min Rain = 0
KCH1 240711Z 36004KT 18/16 A2987 RMK A01 T01810163  RH  089%=      5-min Rain = 0
KCH1 240712Z 00004KT 18/16 A2987 RMK A01 T01810163  RH  089%=      5-min Rain = 0
KCH1 240713Z 00004KT 18/16 A2987 RMK A01 T01810162  RH  089%=      5-min Rain = 0
KCH1 240714Z 01003KT 18/16 A2987 RMK A01 T01810162  RH  089%=      5-min Rain = 0
KCH1 240715Z 01004KT 18/16 A2987 RMK A01 T01810163  RH  089%=      5-min Rain = 0
KCH1 240716Z 01004KT 18/16 A2987 RMK A01 T01800163  RH  090%=      5-min Rain = 0
KCH1 240717Z 01002KT 18/16 A2987 RMK A01 T01800163  RH  090%=      5-min Rain = 0
KCH1 240718Z 01003KT 18/16 A2987 RMK A01 T01790163  RH  090%=      5-min Rain = 0
KCH1 240719Z 02002KT 18/16 A2987 RMK A01 T01790163  RH  091%=      5-min Rain = 0
KCH1 240720Z 00002KT 18/16 A2987 RMK A01 T01780163  RH  091%=      5-min Rain = 0
KCH1 240721Z 00003KT 18/16 A2987 RMK A01 T01780163  RH  091%=      5-min Rain = 0
KCH1 240722Z 03001KT 18/16 A2987 RMK A01 T01780163  RH  091%=      5-min Rain = 0
KCH1 240723Z 05003KT 18/16 A2987 RMK A01 T01770163  RH  091%=      5-min Rain = 0
KCH1 240724Z 05003KT 18/16 A2986 RMK A01 T01770163  RH  091%=      5-min Rain = 0
KCH1 240725Z 05005KT 18/16 A2986 RMK A01 T01770162  RH  091%=      5-min Rain = 0
KCH1 240726Z 05005KT 18/16 A2986 RMK A01 T01770161  RH  091%=      5-min Rain = 0
KCH1 240727Z 04006KT 18/16 A2986 RMK A01 T01770161  RH  090%=      5-min Rain = 0
KCH1 240728Z 06006KT 18/16 A2986 RMK A01 T01770160  RH  090%=      5-min Rain = 0
KCH1 240729Z 04004KT 18/16 A2986 RMK A01 T01790160  RH  089%=      5-min Rain = 0
KCH1 240730Z 03005KT 18/16 A2986 RMK A01 T01800160  RH  088%=      5-min Rain = 0
KCH1 240731Z 05004KT 18/16 A2986 RMK A01 T01800160  RH  088%=      5-min Rain = 0
KCH1 240732Z 04003KT 18/16 A2986 RMK A01 T01800160  RH  088%=      5-min Rain = 0
KCH1 240733Z 04002KT 18/16 A2986 RMK A01 T01800160  RH  088%=      5-min Rain = 0
KCH1 240734Z 05004KT 18/16 A2987 RMK A01 T01810160  RH  088%=      5-min Rain = 0
KCH1 240735Z 06003KT 18/16 A2987 RMK A01 T01810159  RH  087%=      5-min Rain = 0
KCH1 240736Z 06002KT 18/16 A2987 RMK A01 T01810159  RH  087%=      5-min Rain = 0
KCH1 240737Z 04001KT 18/16 A2987 RMK A01 T01810159  RH  087%=      5-min Rain = 0
KCH1 240738Z 09001KT 18/16 A2987 RMK A01 T01810159  RH  087%=      5-min Rain = 0
KCH1 240739Z 05001KT 18/16 A2987 RMK A01 T01810160  RH  087%=      5-min Rain = 0
KCH1 240740Z 07002KT 18/16 A2986 RMK A01 T01810160  RH  087%=      5-min Rain = 0
KCH1 240741Z 07001KT 18/16 A2986 RMK A01 T01800160  RH  088%=      5-min Rain = 0
KCH1 240742Z 07002KT 18/16 A2986 RMK A01 T01800160  RH  088%=      5-min Rain = 0
KCH1 240743Z 08002KT 18/16 A2986 RMK A01 T01800160  RH  088%=      5-min Rain = 0
KCH1 240744Z 07002KT 18/16 A2986 RMK A01 T01790159  RH  088%=      5-min Rain = 0
KCH1 240745Z 07002KT 18/16 A2986 RMK A01 T01790159  RH  088%=      5-min Rain = 0
KCH1 240746Z 07002KT 18/16 A2986 RMK A01 T01800160  RH  088%=      5-min Rain = 0
KCH1 240747Z 06002KT 18/16 A2986 RMK A01 T01790160  RH  089%=      5-min Rain = 0
KCH1 240748Z 06002KT 18/16 A2986 RMK A01 T01790160  RH  089%=      5-min Rain = 0
KCH1 240749Z 06002KT 18/16 A2986 RMK A01 T01780160  RH  089%=      5-min Rain = 0
KCH1 240750Z 06002KT 18/16 A2986 RMK A01 T01780160  RH  089%=      5-min Rain = 0
KCH1 240751Z 07002KT 18/16 A2986 RMK A01 T01780161  RH  090%=      5-min Rain = 0
KCH1 240752Z 08002KT 18/16 A2986 RMK A01 T01780161  RH  090%=      5-min Rain = 0
KCH1 240753Z 07001KT 18/16 A2986 RMK A01 T01770160  RH  090%=      5-min Rain = 0
KCH1 240754Z 00000KT 18/16 A2986 RMK A01 T01770162  RH  091%=      5-min Rain = 0
KCH1 240755Z 00000KT 18/16 A2985 RMK A01 T01770161  RH  091%=      5-min Rain = 0
KCH1 240756Z 02000KT 18/16 A2985 RMK A01 T01760161  RH  091%=      5-min Rain = 0
KCH1 240757Z 30000KT 18/16 A2985 RMK A01 T01760163  RH  092%=      5-min Rain = 0
KCH1 240758Z 28001KT 18/16 A2985 RMK A01 T01760162  RH  092%=      5-min Rain = 0
KCH1 240759Z 28001KT 18/16 A2985 RMK A01 T01760162  RH  092%=      5-min Rain = 0
KCH1 240800Z 28001KT 18/16 A2985 RMK A01 T01760163  RH  092%=      5-min Rain = 0
KCH1 240801Z 28001KT 18/16 A2985 RMK A01 T01760164  RH  093%=      5-min Rain = 0
KCH1 240802Z 28001KT 18/17 A2985 RMK A01 T01760165  RH  093%=      5-min Rain = 0
KCH1 240803Z 28001KT 18/17 A2985 RMK A01 T01760166  RH  094%=      5-min Rain = 0
KCH1 240804Z 28001KT 18/17 A2985 RMK A01 T01760166  RH  094%=      5-min Rain = 0
KCH1 240805Z 27002KT 18/17 A2985 RMK A01 T01760165  RH  094%=      5-min Rain = 0
KCH1 240806Z 26002KT 18/17 A2986 RMK A01 T01750166  RH  094%=      5-min Rain = 0
KCH1 240807Z 26003KT 18/17 A2986 RMK A01 T01750165  RH  094%=      5-min Rain = 0
KCH1 240808Z 27002KT 18/16 A2986 RMK A01 T01750164  RH  094%=      5-min Rain = 0
KCH1 240809Z 27002KT 18/16 A2986 RMK A01 T01750164  RH  094%=      5-min Rain = 0
KCH1 240810Z 27002KT 18/17 A2986 RMK A01 T01750165  RH  094%=      5-min Rain = 0
KCH1 240811Z 27003KT 17/16 A2986 RMK A01 T01740164  RH  094%=      5-min Rain = 0
KCH1 240812Z 27003KT 17/16 A2986 RMK A01 T01740164  RH  094%=      5-min Rain = 0
KCH1 240813Z 26003KT 17/16 A2986 RMK A01 T01740163  RH  094%=      5-min Rain = 0
KCH1 240814Z 26003KT 17/16 A2986 RMK A01 T01730163  RH  094%=      5-min Rain = 0
KCH1 240815Z 25003KT 17/16 A2986 RMK A01 T01730163  RH  094%=      5-min Rain = 0
KCH1 240816Z 25002KT 17/16 A2985 RMK A01 T01730163  RH  094%=      5-min Rain = 0
KCH1 240817Z 25002KT 17/16 A2985 RMK A01 T01730162  RH  094%=      5-min Rain = 0
KCH1 240818Z 26002KT 17/16 A2985 RMK A01 T01730162  RH  093%=      5-min Rain = 0
KCH1 240819Z 26002KT 17/16 A2986 RMK A01 T01720162  RH  093%=      5-min Rain = 0
KCH1 240820Z 25002KT 17/16 A2986 RMK A01 T01730161  RH  093%=      5-min Rain = 0
KCH1 240821Z 24001KT 17/16 A2986 RMK A01 T01730162  RH  093%=      5-min Rain = 0
KCH1 240822Z 24001KT 17/16 A2986 RMK A01 T01730162  RH  093%=      5-min Rain = 0
KCH1 240823Z 23000KT 17/16 A2986 RMK A01 T01730162  RH  093%=      5-min Rain = 0
KCH1 240824Z 00000KT 17/16 A2986 RMK A01 T01730162  RH  093%=      5-min Rain = 0
KCH1 240825Z 00000KT 17/16 A2986 RMK A01 T01730161  RH  093%=      5-min Rain = 0
KCH1 240826Z 00000KT 17/16 A2986 RMK A01 T01730160  RH  092%=      5-min Rain = 0
KCH1 240827Z 00000KT 17/16 A2986 RMK A01 T01730160  RH  092%=      5-min Rain = 0
KCH1 240828Z 00000KT 17/16 A2986 RMK A01 T01740162  RH  092%=      5-min Rain = 0
KCH1 240829Z 24000KT 17/16 A2986 RMK A01 T01740161  RH  092%=      5-min Rain = 0
KCH1 240830Z 22002KT 17/16 A2986 RMK A01 T01740161  RH  092%=      5-min Rain = 0
KCH1 240831Z 21002KT 17/16 A2986 RMK A01 T01740163  RH  093%=      5-min Rain = 0
KCH1 240832Z 22002KT 17/16 A2986 RMK A01 T01740163  RH  093%=      5-min Rain = 0
KCH1 240833Z 24001KT 17/16 A2986 RMK A01 T01740164  RH  094%=      5-min Rain = 0
KCH1 240834Z 00000KT 17/16 A2986 RMK A01 T01730164  RH  094%=      5-min Rain = 0
KCH1 240835Z 02000KT 17/16 A2986 RMK A01 T01730164  RH  094%=      5-min Rain = 0
KCH1 240836Z 04001KT 17/16 A2986 RMK A01 T01730163  RH  094%=      5-min Rain = 0
KCH1 240837Z 10001KT 17/16 A2986 RMK A01 T01730160  RH  092%=      5-min Rain = 0
KCH1 240838Z 12001KT 17/16 A2986 RMK A01 T01740159  RH  091%=      5-min Rain = 0
KCH1 240839Z 07001KT 18/16 A2986 RMK A01 T01750160  RH  091%=      5-min Rain = 0
KCH1 240840Z 05003KT 18/16 A2985 RMK A01 T01750160  RH  090%=      5-min Rain = 0
KCH1 240841Z 04003KT 18/16 A2985 RMK A01 T01750160  RH  091%=      5-min Rain = 0
KCH1 240842Z 03003KT 17/16 A2985 RMK A01 T01740160  RH  092%=      5-min Rain = 0
KCH1 240843Z 03003KT 17/16 A2985 RMK A01 T01720160  RH  092%=      5-min Rain = 0
KCH1 240844Z 02002KT 17/16 A2985 RMK A01 T01710160  RH  093%=      5-min Rain = 0
KCH1 240845Z 36000KT 17/16 A2985 RMK A01 T01700160  RH  094%=      5-min Rain = 0
KCH1 240846Z 35000KT 17/16 A2985 RMK A01 T01690161  RH  095%=      5-min Rain = 0
KCH1 240847Z 35001KT 17/16 A2985 RMK A01 T01680162  RH  096%=      5-min Rain = 0
KCH1 240848Z 34001KT 17/16 A2985 RMK A01 T01680162  RH  096%=      5-min Rain = 0
KCH1 240849Z 34001KT 17/16 A2985 RMK A01 T01680163  RH  096%=      5-min Rain = 0
KCH1 240850Z 33001KT 17/16 A2985 RMK A01 T01680163  RH  097%=      5-min Rain = 0
KCH1 240851Z 33001KT 17/16 A2985 RMK A01 T01690164  RH  097%=      5-min Rain = 0
KCH1 240852Z 31001KT 17/17 A2985 RMK A01 T01700165  RH  097%=      5-min Rain = 0
KCH1 240853Z 31001KT 17/17 A2985 RMK A01 T01710165  RH  096%=      5-min Rain = 0
KCH1 240854Z 32001KT 17/16 A2985 RMK A01 T01710164  RH  096%=      5-min Rain = 0
KCH1 240855Z 34001KT 17/16 A2985 RMK A01 T01710164  RH  096%=      5-min Rain = 0
KCH1 240856Z 36002KT 17/16 A2985 RMK A01 T01710164  RH  096%=      5-min Rain = 0
KCH1 240857Z 00003KT 17/16 A2985 RMK A01 T01710163  RH  095%=      5-min Rain = 0
KCH1 240858Z 01003KT 17/16 A2985 RMK A01 T01710162  RH  095%=      5-min Rain = 0
KCH1 240859Z 00002KT 17/16 A2985 RMK A01 T01700162  RH  095%=      5-min Rain = 0
KCH1 240900Z 35002KT 17/16 A2985 RMK A01 T01710162  RH  095%=      5-min Rain = 0
KCH1 240901Z 34001KT 17/16 A2985 RMK A01 T01710162  RH  095%=      5-min Rain = 0
KCH1 240902Z 32001KT 17/16 A2985 RMK A01 T01710163  RH  095%=      5-min Rain = 0
KCH1 240903Z 30002KT 17/16 A2985 RMK A01 T01710163  RH  095%=      5-min Rain = 0
KCH1 240904Z 31002KT 17/16 A2985 RMK A01 T01710163  RH  095%=      5-min Rain = 0
KCH1 240905Z 32002KT 17/16 A2985 RMK A01 T01710164  RH  096%=      5-min Rain = 0
KCH1 240906Z 31001KT 17/17 A2985 RMK A01 T01710165  RH  096%=      5-min Rain = 0
KCH1 240907Z 31001KT 17/17 A2985 RMK A01 T01710165  RH  097%=      5-min Rain = 0
KCH1 240908Z 31000KT 17/17 A2985 RMK A01 T01700165  RH  097%=      5-min Rain = 0
KCH1 240909Z 31000KT 17/17 A2985 RMK A01 T01700165  RH  097%=      5-min Rain = 0
KCH1 240910Z 34000KT 17/17 A2985 RMK A01 T01700165  RH  097%=      5-min Rain = 0
KCH1 240911Z 35000KT 17/16 A2985 RMK A01 T01690164  RH  097%=      5-min Rain = 0
KCH1 240912Z 00000KT 17/16 A2985 RMK A01 T01690164  RH  097%=      5-min Rain = 0
KCH1 240913Z 03000KT 17/17 A2985 RMK A01 T01690165  RH  098%=      5-min Rain = 0
KCH1 240914Z 04001KT 17/17 A2985 RMK A01 T01690165  RH  098%=      5-min Rain = 0
KCH1 240915Z 04001KT 17/17 A2985 RMK A01 T01680165  RH  098%=      5-min Rain = 0
KCH1 240916Z 06000KT 17/16 A2985 RMK A01 T01680164  RH  098%=      5-min Rain = 0
KCH1 240917Z 07002KT 17/16 A2985 RMK A01 T01680164  RH  098%=      5-min Rain = 0
KCH1 240918Z 06003KT 17/16 A2985 RMK A01 T01660163  RH  098%=      5-min Rain = 0
KCH1 240919Z 06003KT 16/16 A2984 RMK A01 T01640160  RH  097%=      5-min Rain = 0
KCH1 240920Z 05004KT 16/16 A2985 RMK A01 T01620159  RH  098%=      5-min Rain = 0
KCH1 240921Z 04003KT 16/16 A2985 RMK A01 T01610158  RH  098%=      5-min Rain = 0
KCH1 240922Z 03003KT 16/16 A2985 RMK A01 T01600158  RH  098%=      5-min Rain = 0
KCH1 240923Z 03002KT 16/16 A2985 RMK A01 T01600158  RH  099%=      5-min Rain = 0
KCH1 240924Z 03002KT 16/16 A2985 RMK A01 T01600158  RH  099%=      5-min Rain = 0
KCH1 240925Z 02002KT 16/16 A2985 RMK A01 T01600158  RH  099%=      5-min Rain = 0
KCH1 240926Z 02001KT 16/16 A2985 RMK A01 T01590159  RH  099%=      5-min Rain = 0
KCH1 240927Z 02002KT 16/16 A2985 RMK A01 T01590159  RH  100%=      5-min Rain = 0
KCH1 240928Z 03002KT 16/16 A2985 RMK A01 T01590159  RH  100%=      5-min Rain = 0
KCH1 240929Z 04002KT 16/16 A2985 RMK A01 T01590159  RH  100%=      5-min Rain = 0
KCH1 240930Z 04002KT 16/16 A2984 RMK A01 T01590159  RH  100%=      5-min Rain = 0
KCH1 240931Z 05002KT 16/16 A2984 RMK A01 T01590159  RH  100%=      5-min Rain = 0
KCH1 240932Z 04002KT 16/16 A2984 RMK A01 T01590159  RH  100%=      5-min Rain = 0
KCH1 240933Z 04002KT 16/16 A2984 RMK A01 T01590159  RH  100%=      5-min Rain = 0
KCH1 240934Z 04001KT 16/16 A2984 RMK A01 T01590159  RH  100%=      5-min Rain = 0
KCH1 240935Z 03001KT 16/16 A2984 RMK A01 T01600160  RH  100%=      5-min Rain = 0
KCH1 240936Z 04002KT 16/16 A2984 RMK A01 T01600160  RH  100%=      5-min Rain = 0
KCH1 240937Z 04003KT 16/16 A2984 RMK A01 T01590159  RH  100%=      5-min Rain = 0
KCH1 240938Z 03002KT 16/16 A2984 RMK A01 T01590160  RH  100%=      5-min Rain = 0
KCH1 240939Z 03002KT 16/16 A2984 RMK A01 T01590159  RH  100%=      5-min Rain = 0
KCH1 240940Z 05002KT 16/16 A2984 RMK A01 T01590159  RH  100%=      5-min Rain = 0
KCH1 240941Z 07002KT 16/16 A2984 RMK A01 T01590159  RH  100%=      5-min Rain = 0
KCH1 240942Z 04003KT 16/16 A2984 RMK A01 T01590159  RH  100%=      5-min Rain = 0
KCH1 240943Z 06003KT 16/16 A2984 RMK A01 T01590159  RH  100%=      5-min Rain = 0
KCH1 240944Z 08003KT 16/16 A2984 RMK A01 T01580159  RH  100%=      5-min Rain = 0
KCH1 240945Z 05001KT 16/16 A2984 RMK A01 T01580158  RH  100%=      5-min Rain = 0
KCH1 240946Z 06001KT 16/16 A2984 RMK A01 T01570157  RH  100%=      5-min Rain = 0
KCH1 240947Z 07001KT 16/16 A2984 RMK A01 T01570157  RH  100%=      5-min Rain = 0
KCH1 240948Z 07001KT 16/16 A2984 RMK A01 T01570157  RH  100%=      5-min Rain = 0
KCH1 240949Z 05002KT 16/16 A2984 RMK A01 T01570157  RH  100%=      5-min Rain = 0
KCH1 240950Z 03002KT 16/16 A2984 RMK A01 T01560157  RH  100%=      5-min Rain = 0
KCH1 240951Z 03002KT 16/16 A2983 RMK A01 T01570157  RH  100%=      5-min Rain = 0
KCH1 240952Z 04002KT 16/16 A2983 RMK A01 T01570157  RH  100%=      5-min Rain = 0
KCH1 240953Z 03002KT 16/16 A2983 RMK A01 T01560157  RH  100%=      5-min Rain = 0
KCH1 240954Z 00002KT 16/16 A2984 RMK A01 T01570157  RH  100%=      5-min Rain = 0
KCH1 240955Z 00003KT 16/16 A2984 RMK A01 T01560156  RH  100%=      5-min Rain = 0
KCH1 240956Z 03002KT 16/16 A2984 RMK A01 T01570157  RH  100%=      5-min Rain = 0
KCH1 240957Z 05003KT 16/16 A2983 RMK A01 T01570157  RH  100%=      5-min Rain = 0
KCH1 240958Z 02003KT 16/16 A2983 RMK A01 T01570157  RH  100%=      5-min Rain = 0
KCH1 240959Z 04003KT 16/16 A2983 RMK A01 T01570157  RH  100%=      5-min Rain = 0
KCH1 241000Z 06002KT 16/16 A2983 RMK A01 T01570157  RH  100%=      5-min Rain = 0
KCH1 241001Z 06002KT 16/16 A2984 RMK A01 T01560157  RH  100%=      5-min Rain = 0
KCH1 241002Z 08001KT 16/16 A2984 RMK A01 T01560156  RH  100%=      5-min Rain = 0
KCH1 241003Z 07000KT 16/16 A2984 RMK A01 T01560156  RH  100%=      5-min Rain = 0
KCH1 241004Z 07001KT 16/16 A2984 RMK A01 T01560156  RH  100%=      5-min Rain = 0
KCH1 241005Z 07001KT 16/16 A2984 RMK A01 T01550155  RH  100%=      5-min Rain = 0
KCH1 241006Z 06001KT 16/16 A2984 RMK A01 T01550155  RH  100%=      5-min Rain = 0
KCH1 241007Z 06002KT 16/16 A2984 RMK A01 T01550155  RH  100%=      5-min Rain = 0
KCH1 241008Z 07002KT 16/16 A2984 RMK A01 T01550155  RH  100%=      5-min Rain = 0
KCH1 241009Z 07003KT 15/16 A2984 RMK A01 T01540155  RH  100%=      5-min Rain = 0
KCH1 241010Z 07002KT 15/15 A2984 RMK A01 T01540154  RH  100%=      5-min Rain = 0
KCH1 241011Z 08002KT 15/15 A2984 RMK A01 T01530153  RH  100%=      5-min Rain = 0
KCH1 241012Z 08003KT 15/15 A2984 RMK A01 T01540154  RH  100%=      5-min Rain = 0
KCH1 241013Z 08003KT 15/15 A2984 RMK A01 T01530154  RH  100%=      5-min Rain = 0
KCH1 241014Z 08004KT 15/15 A2984 RMK A01 T01530153  RH  100%=      5-min Rain = 0
KCH1 241015Z 09004KT 15/15 A2984 RMK A01 T01530153  RH  100%=      5-min Rain = 0
KCH1 241016Z 09004KT 15/15 A2984 RMK A01 T01530153  RH  100%=      5-min Rain = 0
KCH1 241017Z 09004KT 15/15 A2984 RMK A01 T01520152  RH  100%=      5-min Rain = 0
KCH1 241018Z 09004KT 15/15 A2984 RMK A01 T01530153  RH  100%=      5-min Rain = 0
KCH1 241019Z 10005KT 15/15 A2984 RMK A01 T01530153  RH  100%=      5-min Rain = 0
KCH1 241020Z 10004KT 15/15 A2983 RMK A01 T01520153  RH  100%=      5-min Rain = 0
KCH1 241021Z 11004KT 15/15 A2983 RMK A01 T01530153  RH  100%=      5-min Rain = 0
KCH1 241022Z 11004KT 15/15 A2983 RMK A01 T01530153  RH  100%=      5-min Rain = 0
KCH1 241023Z 11004KT 15/15 A2983 RMK A01 T01530153  RH  100%=      5-min Rain = 0
KCH1 241024Z 10005KT 15/15 A2983 RMK A01 T01530153  RH  100%=      5-min Rain = 0
KCH1 241025Z 12004KT 15/15 A2983 RMK A01 T01530153  RH  100%=      5-min Rain = 0
KCH1 241026Z 12004KT 15/15 A2983 RMK A01 T01530153  RH  100%=      5-min Rain = 0
KCH1 241027Z 13004KT 15/15 A2983 RMK A01 T01540154  RH  100%=      5-min Rain = 0
KCH1 241028Z 13004KT 15/15 A2983 RMK A01 T01540154  RH  100%=      5-min Rain = 0
KCH1 241029Z 12004KT 15/15 A2983 RMK A01 T01540154  RH  100%=      5-min Rain = 0
KCH1 241030Z 12004KT 15/15 A2983 RMK A01 T01540154  RH  100%=      5-min Rain = 0
KCH1 241031Z 12004KT 16/16 A2983 RMK A01 T01550155  RH  100%=      5-min Rain = 0
KCH1 241032Z 12004KT 16/16 A2983 RMK A01 T01550156  RH  100%=      5-min Rain = 0
KCH1 241033Z 12003KT 16/16 A2983 RMK A01 T01560156  RH  100%=      5-min Rain = 0
KCH1 241034Z 15003KT 16/16 A2983 RMK A01 T01570157  RH  100%=      5-min Rain = 0
KCH1 241035Z 14003KT 16/16 A2983 RMK A01 T01570158  RH  100%=      5-min Rain = 0
KCH1 241036Z 12003KT 16/16 A2983 RMK A01 T01580158  RH  100%=      5-min Rain = 0
KCH1 241037Z 14002KT 16/16 A2983 RMK A01 T01580158  RH  100%=      5-min Rain = 0
KCH1 241038Z 20001KT 16/16 A2983 RMK A01 T01580158  RH  099%=      5-min Rain = 0
KCH1 241039Z 22001KT 16/16 A2983 RMK A01 T01580157  RH  099%=      5-min Rain = 0
KCH1 241040Z 23001KT 16/16 A2983 RMK A01 T01590158  RH  099%=      5-min Rain = 0
KCH1 241041Z 27001KT 16/16 A2984 RMK A01 T01590158  RH  099%=      5-min Rain = 0
KCH1 241042Z 26002KT 16/16 A2984 RMK A01 T01590158  RH  099%=      5-min Rain = 0
KCH1 241043Z 26001KT 16/16 A2984 RMK A01 T01590158  RH  099%=      5-min Rain = 0
KCH1 241044Z 26001KT 16/16 A2984 RMK A01 T01580157  RH  100%=      5-min Rain = 0
KCH1 241045Z 24001KT 16/16 A2984 RMK A01 T01570157  RH  100%=      5-min Rain = 0
KCH1 241046Z 24001KT 16/16 A2985 RMK A01 T01570157  RH  100%=      5-min Rain = 0
KCH1 241047Z 23002KT 16/16 A2985 RMK A01 T01570157  RH  100%=      5-min Rain = 0
KCH1 241048Z 22002KT 16/16 A2985 RMK A01 T01570157  RH  100%=      5-min Rain = 0
KCH1 241049Z 19001KT 16/16 A2985 RMK A01 T01560156  RH  100%=      5-min Rain = 0
KCH1 241050Z 17001KT 16/16 A2985 RMK A01 T01560156  RH  100%=      5-min Rain = 0
KCH1 241051Z 18002KT 16/16 A2985 RMK A01 T01560157  RH  100%=      5-min Rain = 0
KCH1 241052Z 17002KT 16/16 A2985 RMK A01 T01560156  RH  100%=      5-min Rain = 0
KCH1 241053Z 15002KT 16/16 A2985 RMK A01 T01560156  RH  100%=      5-min Rain = 0
KCH1 241054Z 15003KT 16/16 A2985 RMK A01 T01560156  RH  100%=      5-min Rain = 0
KCH1 241055Z 13003KT 16/16 A2985 RMK A01 T01570157  RH  100%=      5-min Rain = 0
KCH1 241056Z 13003KT 16/16 A2985 RMK A01 T01570158  RH  100%=      5-min Rain = 0
KCH1 241057Z 12003KT 16/16 A2985 RMK A01 T01570157  RH  100%=      5-min Rain = 0
KCH1 241058Z 12003KT 16/16 A2985 RMK A01 T01570156  RH  099%=      5-min Rain = 0
KCH1 241059Z 13004KT 16/15 A2985 RMK A01 T01550154  RH  099%=      5-min Rain = 0
KCH1 241100Z 12004KT 16/16 A2985 RMK A01 T01550155  RH  100%=      5-min Rain = 0
KCH1 241101Z 13003KT 16/16 A2985 RMK A01 T01550155  RH  100%=      5-min Rain = 0
KCH1 241102Z 14003KT 16/15 A2985 RMK A01 T01550154  RH  100%=      5-min Rain = 0
KCH1 241103Z 14002KT 15/15 A2985 RMK A01 T01540154  RH  100%=      5-min Rain = 0
KCH1 241104Z 16002KT 15/15 A2985 RMK A01 T01540154  RH  100%=      5-min Rain = 0
KCH1 241105Z 16002KT 15/16 A2985 RMK A01 T01540155  RH  100%=      5-min Rain = 0
KCH1 241106Z 18001KT 16/16 A2985 RMK A01 T01550155  RH  100%=      5-min Rain = 0
KCH1 241107Z 21001KT 16/16 A2985 RMK A01 T01550155  RH  100%=      5-min Rain = 0
KCH1 241108Z 21002KT 16/16 A2985 RMK A01 T01560156  RH  100%=      5-min Rain = 0
KCH1 241109Z 21001KT 16/16 A2985 RMK A01 T01560156  RH  100%=      5-min Rain = 0
KCH1 241110Z 20002KT 16/16 A2985 RMK A01 T01560157  RH  100%=      5-min Rain = 0
KCH1 241111Z 21002KT 16/16 A2985 RMK A01 T01570157  RH  100%=      5-min Rain = 0
KCH1 241112Z 22002KT 16/16 A2985 RMK A01 T01570157  RH  100%=      5-min Rain = 0
KCH1 241113Z 22001KT 16/16 A2985 RMK A01 T01570157  RH  100%=      5-min Rain = 0
KCH1 241114Z 23001KT 16/16 A2985 RMK A01 T01570157  RH  100%=      5-min Rain = 0
KCH1 241115Z 21001KT 16/16 A2985 RMK A01 T01570157  RH  100%=      5-min Rain = 0
KCH1 241116Z 17001KT 16/16 A2986 RMK A01 T01570157  RH  100%=      5-min Rain = 0
KCH1 241117Z 17001KT 16/16 A2986 RMK A01 T01570157  RH  100%=      5-min Rain = 0
KCH1 241118Z 17002KT 16/16 A2986 RMK A01 T01570157  RH  100%=      5-min Rain = 0
KCH1 241119Z 16002KT 16/16 A2986 RMK A01 T01570157  RH  100%=      5-min Rain = 0
KCH1 241120Z 16001KT 16/16 A2985 RMK A01 T01580158  RH  100%=      5-min Rain = 0
KCH1 241121Z 16002KT 16/16 A2985 RMK A01 T01580158  RH  100%=      5-min Rain = 0
KCH1 241122Z 15002KT 16/16 A2985 RMK A01 T01580159  RH  100%=      5-min Rain = 0
KCH1 241123Z 15002KT 16/16 A2985 RMK A01 T01590159  RH  100%=      5-min Rain = 0
KCH1 241124Z 14003KT 16/16 A2985 RMK A01 T01590159  RH  100%=      5-min Rain = 0
KCH1 241125Z 15003KT 16/16 A2985 RMK A01 T01600160  RH  100%=      5-min Rain = 0
KCH1 241126Z 15003KT 16/16 A2985 RMK A01 T01600160  RH  100%=      5-min Rain = 0
KCH1 241127Z 15003KT 16/16 A2986 RMK A01 T01610160  RH  099%=      5-min Rain = 0
KCH1 241128Z 16003KT 16/16 A2986 RMK A01 T01610159  RH  099%=      5-min Rain = 0
KCH1 241129Z 16003KT 16/16 A2986 RMK A01 T01600158  RH  098%=      5-min Rain = 0
KCH1 241130Z 17004KT 16/16 A2986 RMK A01 T01590157  RH  098%=      5-min Rain = 0
KCH1 241131Z 17004KT 16/16 A2986 RMK A01 T01590157  RH  099%=      5-min Rain = 0
KCH1 241132Z 17004KT 16/16 A2986 RMK A01 T01590158  RH  099%=      5-min Rain = 0
KCH1 241133Z 18004KT 16/16 A2986 RMK A01 T01590158  RH  099%=      5-min Rain = 0
KCH1 241134Z 18004KT 16/16 A2986 RMK A01 T01590158  RH  099%=      5-min Rain = 0
KCH1 241135Z 18004KT 16/16 A2986 RMK A01 T01590158  RH  100%=      5-min Rain = 0
KCH1 241136Z 18004KT 16/16 A2986 RMK A01 T01590159  RH  100%=      5-min Rain = 0
KCH1 241137Z 18004KT 16/16 A2986 RMK A01 T01590159  RH  100%=      5-min Rain = 0
KCH1 241138Z 18004KT 16/16 A2986 RMK A01 T01590159  RH  100%=      5-min Rain = 0
KCH1 241139Z 19004KT 16/16 A2986 RMK A01 T01590159  RH  100%=      5-min Rain = 0
KCH1 241140Z 18004KT 16/16 A2986 RMK A01 T01590159  RH  100%=      5-min Rain = 0
KCH1 241141Z 18004KT 16/16 A2986 RMK A01 T01590159  RH  100%=      5-min Rain = 0
KCH1 241142Z 18004KT 16/16 A2986 RMK A01 T01580158  RH  100%=      5-min Rain = 0
KCH1 241143Z 17004KT 16/16 A2986 RMK A01 T01580158  RH  100%=      5-min Rain = 0
KCH1 241144Z 17004KT 16/16 A2985 RMK A01 T01580158  RH  100%=      5-min Rain = 0
KCH1 241145Z 17004KT 16/16 A2986 RMK A01 T01580158  RH  100%=      5-min Rain = 0
KCH1 241146Z 18004KT 16/16 A2986 RMK A01 T01580158  RH  100%=      5-min Rain = 0
KCH1 241147Z 18004KT 16/16 A2986 RMK A01 T01570158  RH  100%=      5-min Rain = 0
KCH1 241148Z 18004KT 16/16 A2986 RMK A01 T01570157  RH  100%=      5-min Rain = 0
KCH1 241149Z 18004KT 16/16 A2986 RMK A01 T01570157  RH  100%=      5-min Rain = 0
KCH1 241150Z 17004KT 16/16 A2986 RMK A01 T01570157  RH  100%=      5-min Rain = 0
KCH1 241151Z 17004KT 16/16 A2986 RMK A01 T01570157  RH  100%=      5-min Rain = 0
KCH1 241152Z 17004KT 16/16 A2986 RMK A01 T01570157  RH  100%=      5-min Rain = 0
KCH1 241153Z 16004KT 16/16 A2986 RMK A01 T01570157  RH  100%=      5-min Rain = 0
KCH1 241154Z 16004KT 16/16 A2986 RMK A01 T01570157  RH  100%=      5-min Rain = 0
KCH1 241155Z 16004KT 16/16 A2987 RMK A01 T01570157  RH  100%=      5-min Rain = 0
KCH1 241156Z 17003KT 16/16 A2987 RMK A01 T01560157  RH  100%=      5-min Rain = 0
KCH1 241157Z 17003KT 16/16 A2987 RMK A01 T01570157  RH  100%=      5-min Rain = 0
KCH1 241158Z 17003KT 16/16 A2987 RMK A01 T01570157  RH  100%=      5-min Rain = 0
KCH1 241159Z 17003KT 16/16 A2987 RMK A01 T01570157  RH  100%=      5-min Rain = 0
KCH1 241200Z 18003KT 16/16 A2987 RMK A01 T01560157  RH  100%=      5-min Rain = 0
KCH1 241201Z 18003KT 16/16 A2987 RMK A01 T01570157  RH  100%=      5-min Rain = 0
KCH1 241202Z 18003KT 16/16 A2987 RMK A01 T01570157  RH  100%=      5-min Rain = 0
KCH1 241203Z 19003KT 16/16 A2987 RMK A01 T01570157  RH  100%=      5-min Rain = 0
KCH1 241204Z 18003KT 16/16 A2987 RMK A01 T01570157  RH  100%=      5-min Rain = 0
KCH1 241205Z 18003KT 16/16 A2987 RMK A01 T01580158  RH  100%=      5-min Rain = 0
KCH1 241206Z 18003KT 16/16 A2987 RMK A01 T01580158  RH  100%=      5-min Rain = 0
KCH1 241207Z 18002KT 16/16 A2987 RMK A01 T01580158  RH  100%=      5-min Rain = 0
KCH1 241208Z 18003KT 16/16 A2987 RMK A01 T01590159  RH  100%=      5-min Rain = 0
KCH1 241209Z 18003KT 16/16 A2987 RMK A01 T01590159  RH  100%=      5-min Rain = 0
KCH1 241210Z 18002KT 16/16 A2987 RMK A01 T01590159  RH  100%=      5-min Rain = 0
KCH1 241211Z 18002KT 16/16 A2988 RMK A01 T01590160  RH  100%=      5-min Rain = 0
KCH1 241212Z 18002KT 16/16 A2988 RMK A01 T01600160  RH  100%=      5-min Rain = 0
KCH1 241213Z 18001KT 16/16 A2987 RMK A01 T01600160  RH  100%=      5-min Rain = 0
KCH1 241214Z 18000KT 16/16 A2987 RMK A01 T01610161  RH  100%=      5-min Rain = 0
KCH1 241215Z 00000KT 16/16 A2988 RMK A01 T01610161  RH  100%=      5-min Rain = 0
KCH1 241216Z 00000KT 16/16 A2988 RMK A01 T01610161  RH  100%=      5-min Rain = 0
KCH1 241217Z 00000KT 16/16 A2988 RMK A01 T01620162  RH  100%=      5-min Rain = 0
KCH1 241218Z 00000KT 16/16 A2988 RMK A01 T01640164  RH  100%=      5-min Rain = 0
KCH1 241219Z 18000KT 17/17 A2988 RMK A01 T01650165  RH  100%=      5-min Rain = 0
KCH1 241220Z 18000KT 17/17 A2988 RMK A01 T01660166  RH  100%=      5-min Rain = 0
KCH1 241221Z 00000KT 17/17 A2988 RMK A01 T01670166  RH  099%=      5-min Rain = 0
KCH1 241222Z 00000KT 17/17 A2988 RMK A01 T01690167  RH  099%=      5-min Rain = 0
KCH1 241223Z 00000KT 17/17 A2988 RMK A01 T01700167  RH  098%=      5-min Rain = 0
KCH1 241224Z 25000KT 17/17 A2988 RMK A01 T01710166  RH  097%=      5-min Rain = 0
KCH1 241225Z 00000KT 17/16 A2988 RMK A01 T01710164  RH  096%=      5-min Rain = 0
KCH1 241226Z 27000KT 17/16 A2988 RMK A01 T01710164  RH  096%=      5-min Rain = 0
KCH1 241227Z 00000KT 17/17 A2988 RMK A01 T01720165  RH  095%=      5-min Rain = 0
KCH1 241228Z 00000KT 17/17 A2988 RMK A01 T01720165  RH  095%=      5-min Rain = 0
KCH1 241229Z 00000KT 17/17 A2988 RMK A01 T01740168  RH  096%=      5-min Rain = 0
KCH1 241230Z 00000KT 18/17 A2988 RMK A01 T01770170  RH  096%=      5-min Rain = 0
KCH1 241231Z 08001KT 18/17 A2988 RMK A01 T01790168  RH  094%=      5-min Rain = 0
KCH1 241232Z 07001KT 18/16 A2988 RMK A01 T01770164  RH  092%=      5-min Rain = 0
KCH1 241233Z 08002KT 17/16 A2988 RMK A01 T01740162  RH  092%=      5-min Rain = 0
KCH1 241234Z 08002KT 17/16 A2989 RMK A01 T01720160  RH  093%=      5-min Rain = 0
KCH1 241235Z 08002KT 17/16 A2989 RMK A01 T01700158  RH  093%=      5-min Rain = 0
KCH1 241236Z 08002KT 17/16 A2989 RMK A01 T01680158  RH  094%=      5-min Rain = 0
KCH1 241237Z 07002KT 17/16 A2988 RMK A01 T01680160  RH  095%=      5-min Rain = 0
KCH1 241238Z 09001KT 17/16 A2988 RMK A01 T01680161  RH  096%=      5-min Rain = 0
KCH1 241239Z 10001KT 17/16 A2989 RMK A01 T01680161  RH  096%=      5-min Rain = 0
KCH1 241240Z 09001KT 17/16 A2988 RMK A01 T01680163  RH  097%=      5-min Rain = 0
KCH1 241241Z 09002KT 17/16 A2988 RMK A01 T01690163  RH  096%=      5-min Rain = 0
KCH1 241242Z 09002KT 17/16 A2988 RMK A01 T01690162  RH  096%=      5-min Rain = 0
KCH1 241243Z 09002KT 17/16 A2988 RMK A01 T01690162  RH  096%=      5-min Rain = 0
KCH1 241244Z 09002KT 17/16 A2989 RMK A01 T01700164  RH  096%=      5-min Rain = 0
KCH1 241245Z 10001KT 17/17 A2989 RMK A01 T01700165  RH  097%=      5-min Rain = 0
KCH1 241246Z 10001KT 17/17 A2989 RMK A01 T01720166  RH  096%=      5-min Rain = 0
KCH1 241247Z 10001KT 17/17 A2989 RMK A01 T01730167  RH  096%=      5-min Rain = 0
KCH1 241248Z 10001KT 18/17 A2989 RMK A01 T01750168  RH  096%=      5-min Rain = 0
KCH1 241249Z 09001KT 18/17 A2989 RMK A01 T01750166  RH  094%=      5-min Rain = 0
KCH1 241250Z 12001KT 18/17 A2989 RMK A01 T01760166  RH  094%=      5-min Rain = 0
KCH1 241251Z 16002KT 18/17 A2989 RMK A01 T01770166  RH  093%=      5-min Rain = 0
KCH1 241252Z 15001KT 18/17 A2989 RMK A01 T01780166  RH  093%=      5-min Rain = 0
KCH1 241253Z 15002KT 18/17 A2989 RMK A01 T01780167  RH  093%=      5-min Rain = 0
KCH1 241254Z 13003KT 18/17 A2989 RMK A01 T01790169  RH  094%=      5-min Rain = 0
KCH1 241255Z 13002KT 18/17 A2989 RMK A01 T01800169  RH  094%=      5-min Rain = 0
KCH1 241256Z 13003KT 18/17 A2989 RMK A01 T01810171  RH  094%=      5-min Rain = 0
KCH1 241257Z 14004KT 18/17 A2989 RMK A01 T01810169  RH  093%=      5-min Rain = 0
KCH1 241258Z 14003KT 18/17 A2989 RMK A01 T01820170  RH  093%=      5-min Rain = 0
KCH1 241259Z 14003KT 18/17 A2989 RMK A01 T01820170  RH  092%=      5-min Rain = 0
KCH1 241300Z 14004KT 18/17 A2989 RMK A01 T01830170  RH  092%=      5-min Rain = 0
KCH1 241301Z 15003KT 18/17 A2989 RMK A01 T01840170  RH  092%=      5-min Rain = 0
KCH1 241302Z 17004KT 19/17 A2989 RMK A01 T01850171  RH  092%=      5-min Rain = 0
KCH1 241303Z 15004KT 19/17 A2989 RMK A01 T01850171  RH  092%=      5-min Rain = 0
KCH1 241304Z 16005KT 19/17 A2989 RMK A01 T01850171  RH  091%=      5-min Rain = 0
KCH1 241305Z 17004KT 19/17 A2989 RMK A01 T01860172  RH  092%=      5-min Rain = 0
KCH1 241306Z 16005KT 19/17 A2989 RMK A01 T01870172  RH  091%=      5-min Rain = 0
KCH1 241307Z 17004KT 19/17 A299 RMK A01 T01870173  RH  092%=      5-min Rain = 0
KCH1 241308Z 17005KT 19/18 A299 RMK A01 T01880175  RH  092%=      5-min Rain = 0
KCH1 241309Z 17004KT 19/17 A299 RMK A01 T01880173  RH  091%=      5-min Rain = 0
KCH1 241310Z 16005KT 19/17 A299 RMK A01 T01880174  RH  091%=      5-min Rain = 0
KCH1 241311Z 16006KT 19/18 A299 RMK A01 T01890175  RH  091%=      5-min Rain = 0
KCH1 241312Z 16004KT 19/17 A299 RMK A01 T01900174  RH  090%=      5-min Rain = 0
KCH1 241313Z 16005KT 19/17 A299 RMK A01 T01900173  RH  090%=      5-min Rain = 0
KCH1 241314Z 16006KT 19/17 A299 RMK A01 T01900173  RH  090%=      5-min Rain = 0
KCH1 241315Z 16007KT 19/17 A299 RMK A01 T01900172  RH  089%=      5-min Rain = 0
KCH1 241316Z 16006KT 19/17 A299 RMK A01 T01900173  RH  090%=      5-min Rain = 0
KCH1 241317Z 16007KT 19/17 A299 RMK A01 T01910174  RH  090%=      5-min Rain = 0
KCH1 241318Z 16006KT 19/17 A299 RMK A01 T01910174  RH  089%=      5-min Rain = 0
KCH1 241319Z 16008KT 19/18 A299 RMK A01 T01920175  RH  090%=      5-min Rain = 0
KCH1 241320Z 16008KT 19/17 A299 RMK A01 T01920174  RH  089%=      5-min Rain = 0
KCH1 241321Z 16005KT 19/18 A299 RMK A01 T01930175  RH  089%=      5-min Rain = 0
KCH1 241322Z 16005KT 19/18 A299 RMK A01 T01940175  RH  089%=      5-min Rain = 0
KCH1 241323Z 17008KT 20/18 A299 RMK A01 T01950176  RH  089%=      5-min Rain = 0
KCH1 241324Z 17006KT 20/17 A299 RMK A01 T01950174  RH  087%=      5-min Rain = 0
KCH1 241325Z 16007KT 20/18 A299 RMK A01 T01950175  RH  088%=      5-min Rain = 0
KCH1 241326Z 16006KT 20/17 A299 RMK A01 T01950174  RH  087%=      5-min Rain = 0
KCH1 241327Z 17007KT 20/18 A299 RMK A01 T01950175  RH  088%=      5-min Rain = 0
KCH1 241328Z 16005KT 20/17 A299 RMK A01 T01950173  RH  087%=      5-min Rain = 0
KCH1 241329Z 16007KT 20/18 A299 RMK A01 T01960175  RH  088%=      5-min Rain = 0
KCH1 241330Z 16007KT 20/17 A299 RMK A01 T01970174  RH  087%=      5-min Rain = 0
KCH1 241331Z 16007KT 20/18 A299 RMK A01 T01970175  RH  087%=      5-min Rain = 0
KCH1 241332Z 16006KT 20/18 A299 RMK A01 T01980175  RH  086%=      5-min Rain = 0
KCH1 241333Z 16008KT 20/17 A299 RMK A01 T01980174  RH  086%=      5-min Rain = 0
KCH1 241334Z 16007KT 20/17 A299 RMK A01 T01980173  RH  085%=      5-min Rain = 0
KCH1 241335Z 17007KT 20/18 A299 RMK A01 T01990175  RH  086%=      5-min Rain = 0
KCH1 241336Z 16007KT 20/17 A299 RMK A01 T02000174  RH  085%=      5-min Rain = 0
KCH1 241337Z 17007KT 20/18 A299 RMK A01 T02000175  RH  085%=      5-min Rain = 0
KCH1 241338Z 16008KT 20/18 A299 RMK A01 T02010176  RH  085%=      5-min Rain = 0
KCH1 241339Z 16007KT 20/17 A299 RMK A01 T02020174  RH  084%=      5-min Rain = 0
KCH1 241340Z 16006KT 20/18 A299 RMK A01 T02030176  RH  085%=      5-min Rain = 0
KCH1 241341Z 16006KT 20/18 A299 RMK A01 T02030177  RH  085%=      5-min Rain = 0
KCH1 241342Z 15007KT 21/18 A299 RMK A01 T02050178  RH  085%=      5-min Rain = 0
KCH1 241343Z 16007KT 21/18 A299 RMK A01 T02050178  RH  084%=      5-min Rain = 0
KCH1 241344Z 15007KT 21/18 A299 RMK A01 T02060177  RH  083%=      5-min Rain = 0
KCH1 241345Z 15009KT 21/18 A299 RMK A01 T02060177  RH  083%=      5-min Rain = 0
KCH1 241346Z 16011KT 21/18 A299 RMK A01 T02060175  RH  082%=      5-min Rain = 0
KCH1 241347Z 17008KT 21/18 A299 RMK A01 T02060175  RH  082%=      5-min Rain = 0
KCH1 241348Z 16007KT 21/18 A299 RMK A01 T02070178  RH  083%=      5-min Rain = 0
KCH1 241349Z 16009KT 21/18 A299 RMK A01 T02080178  RH  082%=      5-min Rain = 0
KCH1 241350Z 16008G13KT 21/18 A299 RMK A01 T02090176  RH  082%=      5-min Rain = 0
KCH1 241351Z 17010KT 21/18 A299 RMK A01 T02090176  RH  081%=      5-min Rain = 0
KCH1 241352Z 18010KT 21/18 A299 RMK A01 T02100175  RH  080%=      5-min Rain = 0
KCH1 241353Z 16006KT 21/18 A299 RMK A01 T02100177  RH  082%=      5-min Rain = 0
KCH1 241354Z 15009KT 21/18 A299 RMK A01 T02110180  RH  082%=      5-min Rain = 0
KCH1 241355Z 17006KT 21/18 A299 RMK A01 T02120178  RH  081%=      5-min Rain = 0
KCH1 241356Z 17007KT 21/18 A299 RMK A01 T02130177  RH  080%=      5-min Rain = 0
KCH1 241357Z 16007KT 21/18 A299 RMK A01 T02130176  RH  079%=      5-min Rain = 0
KCH1 241358Z 16006KT 21/18 A299 RMK A01 T02140178  RH  080%=      5-min Rain = 0
KCH1 241359Z 16009G14KT 22/18 A299 RMK A01 T02160176  RH  078%=      5-min Rain = 0
KCH1 241400Z 17010KT 22/17 A299 RMK A01 T02170171  RH  075%=      5-min Rain = 0
KCH1 241401Z 16009G14KT 22/17 A299 RMK A01 T02170172  RH  075%=      5-min Rain = 0
KCH1 241402Z 16008KT 22/17 A299 RMK A01 T02170172  RH  076%=      5-min Rain = 0
KCH1 241403Z 16008KT 22/17 A299 RMK A01 T02170171  RH  075%=      5-min Rain = 0
KCH1 241404Z 16009KT 22/17 A299 RMK A01 T02180172  RH  075%=      5-min Rain = 0
KCH1 241405Z 17006KT 22/17 A299 RMK A01 T02190173  RH  075%=      5-min Rain = 0
KCH1 241406Z 16008KT 22/17 A299 RMK A01 T02200174  RH  075%=      5-min Rain = 0
KCH1 241407Z 15008KT 22/17 A299 RMK A01 T02210174  RH  075%=      5-min Rain = 0
KCH1 241408Z 16008KT 22/17 A299 RMK A01 T02220174  RH  074%=      5-min Rain = 0
KCH1 241409Z 16012KT 22/17 A299 RMK A01 T02220170  RH  072%=      5-min Rain = 0
KCH1 241410Z 16012KT 22/17 A299 RMK A01 T02220169  RH  072%=      5-min Rain = 0
KCH1 241411Z 16011KT 22/17 A299 RMK A01 T02210169  RH  072%=      5-min Rain = 0
KCH1 241412Z 16009KT 22/17 A299 RMK A01 T02200170  RH  073%=      5-min Rain = 0
KCH1 241413Z 17010KT 22/17 A299 RMK A01 T02210170  RH  073%=      5-min Rain = 0
KCH1 241414Z 15010KT 22/17 A299 RMK A01 T02210169  RH  072%=      5-min Rain = 0
KCH1 241415Z 15010KT 22/17 A299 RMK A01 T02220171  RH  073%=      5-min Rain = 0
KCH1 241416Z 16011KT 22/17 A299 RMK A01 T02220172  RH  073%=      5-min Rain = 0
KCH1 241417Z 16008KT 22/17 A299 RMK A01 T02230170  RH  072%=      5-min Rain = 0
KCH1 241418Z 17010KT 22/17 A299 RMK A01 T02230173  RH  074%=      5-min Rain = 0
KCH1 241419Z 16008KT 22/17 A299 RMK A01 T02220173  RH  073%=      5-min Rain = 0
KCH1 241420Z 16009KT 22/17 A299 RMK A01 T02210174  RH  074%=      5-min Rain = 0
KCH1 241421Z 16010KT 22/17 A299 RMK A01 T02210172  RH  074%=      5-min Rain = 0
KCH1 241422Z 16008G13KT 22/17 A299 RMK A01 T02210172  RH  074%=      5-min Rain = 0
KCH1 241423Z 16009G15KT 22/17 A299 RMK A01 T02210172  RH  074%=      5-min Rain = 0
KCH1 241424Z 17010KT 22/17 A299 RMK A01 T02220173  RH  074%=      5-min Rain = 0
KCH1 241425Z 16012KT 22/17 A299 RMK A01 T02220170  RH  072%=      5-min Rain = 0
KCH1 241426Z 17009G18KT 22/17 A299 RMK A01 T02210170  RH  073%=      5-min Rain = 0
KCH1 241427Z 16013G18KT 22/17 A299 RMK A01 T02210171  RH  073%=      5-min Rain = 0
KCH1 241428Z 17012G17KT 22/17 A299 RMK A01 T02200171  RH  074%=      5-min Rain = 0
KCH1 241429Z 17011KT 22/17 A299 RMK A01 T02190171  RH  074%=      5-min Rain = 0
KCH1 241430Z 16011G16KT 22/17 A299 RMK A01 T02190172  RH  074%=      5-min Rain = 0
KCH1 241431Z 16012G18KT 22/17 A299 RMK A01 T02200172  RH  074%=      5-min Rain = 0
KCH1 241432Z 17012KT 22/17 A299 RMK A01 T02200172  RH  074%=      5-min Rain = 0
KCH1 241433Z 17012KT 22/17 A299 RMK A01 T02200171  RH  074%=      5-min Rain = 0
KCH1 241434Z 17011KT 22/17 A299 RMK A01 T02190171  RH  074%=      5-min Rain = 0
KCH1 241435Z 17011KT 22/17 A299 RMK A01 T02190172  RH  075%=      5-min Rain = 0
KCH1 241436Z 17010KT 22/17 A299 RMK A01 T02190172  RH  075%=      5-min Rain = 0
KCH1 241437Z 19009KT 22/17 A299 RMK A01 T02190173  RH  075%=      5-min Rain = 0
KCH1 241438Z 18009KT 22/17 A299 RMK A01 T02180173  RH  076%=      5-min Rain = 0
KCH1 241439Z 17014KT 22/17 A299 RMK A01 T02180174  RH  076%=      5-min Rain = 0
KCH1 241440Z 17012KT 22/17 A299 RMK A01 T02180173  RH  076%=      5-min Rain = 0
KCH1 241441Z 19011KT 22/18 A299 RMK A01 T02180175  RH  076%=      5-min Rain = 0
KCH1 241442Z 16009G14KT 22/17 A299 RMK A01 T02170174  RH  076%=      5-min Rain = 0
KCH1 241443Z 16009G14KT 22/18 A299 RMK A01 T02180175  RH  077%=      5-min Rain = 0
KCH1 241444Z 16008KT 22/18 A299 RMK A01 T02170175  RH  077%=      5-min Rain = 0
KCH1 241445Z 16010KT 22/18 A299 RMK A01 T02180175  RH  077%=      5-min Rain = 0
KCH1 241446Z 17010KT 22/17 A299 RMK A01 T02180174  RH  076%=      5-min Rain = 0
KCH1 241447Z 16012KT 22/17 A299 RMK A01 T02180174  RH  076%=      5-min Rain = 0
KCH1 241448Z 17010KT 22/18 A299 RMK A01 T02180175  RH  076%=      5-min Rain = 0
KCH1 241449Z 16009KT 22/17 A299 RMK A01 T02190174  RH  075%=      5-min Rain = 0
KCH1 241450Z 15011KT 22/18 A2989 RMK A01 T02200176  RH  076%=      5-min Rain = 0
KCH1 241451Z 16010KT 22/18 A2989 RMK A01 T02230177  RH  075%=      5-min Rain = 0
KCH1 241452Z 16012KT 23/18 A2989 RMK A01 T02250176  RH  074%=      5-min Rain = 0
KCH1 241453Z 16011KT 23/18 A2989 RMK A01 T02250175  RH  073%=      5-min Rain = 0
KCH1 241454Z 17008KT 23/18 A2989 RMK A01 T02250177  RH  074%=      5-min Rain = 0
KCH1 241455Z 18010KT 23/18 A2989 RMK A01 T02260177  RH  074%=      5-min Rain = 0
KCH1 241456Z 18010KT 23/18 A2989 RMK A01 T02270177  RH  073%=      5-min Rain = 0
KCH1 241457Z 17007KT 23/18 A2989 RMK A01 T02270179  RH  074%=      5-min Rain = 0
KCH1 241458Z 17005KT 23/18 A2989 RMK A01 T02280180  RH  074%=      5-min Rain = 0
KCH1 241459Z 16006KT 23/18 A2989 RMK A01 T02300182  RH  074%=      5-min Rain = 0
KCH1 241500Z 16010KT 23/18 A2989 RMK A01 T02330181  RH  072%=      5-min Rain = 0
KCH1 241501Z 17007KT 23/18 A2989 RMK A01 T02340182  RH  073%=      5-min Rain = 0
KCH1 241502Z 15009KT 24/18 A2989 RMK A01 T02350183  RH  073%=      5-min Rain = 0
KCH1 241503Z 16012G17KT 24/18 A2989 RMK A01 T02360180  RH  071%=      5-min Rain = 0
KCH1 241504Z 16013KT 23/18 A2989 RMK A01 T02340178  RH  071%=      5-min Rain = 0
KCH1 241505Z 16013G18KT 23/18 A2989 RMK A01 T02330179  RH  072%=      5-min Rain = 0
KCH1 241506Z 16010KT 23/18 A2989 RMK A01 T02320179  RH  072%=      5-min Rain = 0
KCH1 241507Z 17012KT 23/18 A2989 RMK A01 T02320179  RH  072%=      5-min Rain = 0
KCH1 241508Z 16014KT 23/18 A2989 RMK A01 T02330179  RH  072%=      5-min Rain = 0
KCH1 241509Z 17012KT 23/18 A2989 RMK A01 T02330179  RH  072%=      5-min Rain = 0
KCH1 241510Z 17012KT 23/18 A2989 RMK A01 T02330178  RH  071%=      5-min Rain = 0
KCH1 241511Z 18012KT 23/18 A2989 RMK A01 T02330179  RH  072%=      5-min Rain = 0
KCH1 241512Z 18012KT 23/18 A2989 RMK A01 T02320178  RH  072%=      5-min Rain = 0
KCH1 241513Z 17009KT 23/18 A2989 RMK A01 T02320178  RH  072%=      5-min Rain = 0
KCH1 241514Z 18012KT 23/18 A2989 RMK A01 T02320180  RH  072%=      5-min Rain = 0
KCH1 241515Z 18011KT 23/18 A2989 RMK A01 T02330179  RH  071%=      5-min Rain = 0
KCH1 241516Z 19009KT 23/18 A2989 RMK A01 T02340181  RH  072%=      5-min Rain = 0
KCH1 241517Z 18012KT 24/18 A2989 RMK A01 T02350179  RH  071%=      5-min Rain = 0
KCH1 241518Z 19009KT 23/18 A2989 RMK A01 T02330180  RH  072%=      5-min Rain = 0
KCH1 241519Z 18010KT 23/18 A2989 RMK A01 T02320179  RH  072%=      5-min Rain = 0
KCH1 241520Z 18008KT 23/18 A2989 RMK A01 T02300179  RH  073%=      5-min Rain = 0
KCH1 241521Z 18010KT 23/18 A2989 RMK A01 T02300181  RH  074%=      5-min Rain = 0
KCH1 241522Z 18010KT 23/18 A2989 RMK A01 T02310181  RH  073%=      5-min Rain = 0
KCH1 241523Z 19010KT 23/18 A2989 RMK A01 T02320181  RH  073%=      5-min Rain = 0
KCH1 241524Z 18009G14KT 23/18 A2989 RMK A01 T02320179  RH  072%=      5-min Rain = 0
KCH1 241525Z 16012G18KT 23/18 A2989 RMK A01 T02330183  RH  073%=      5-min Rain = 0
KCH1 241526Z 16014KT 24/18 A2989 RMK A01 T02350182  RH  072%=      5-min Rain = 0
KCH1 241527Z 17009KT 24/18 A2989 RMK A01 T02350180  RH  072%=      5-min Rain = 0
KCH1 241528Z 16013KT 23/18 A2989 RMK A01 T02340180  RH  072%=      5-min Rain = 0
KCH1 241529Z 16014KT 23/18 A2989 RMK A01 T02340180  RH  072%=      5-min Rain = 0
KCH1 241530Z 17013KT 23/18 A2988 RMK A01 T02340180  RH  071%=      5-min Rain = 0
KCH1 241531Z 16013G18KT 23/18 A2988 RMK A01 T02330179  RH  072%=      5-min Rain = 0
KCH1 241532Z 17013KT 23/18 A2988 RMK A01 T02320179  RH  072%=      5-min Rain = 0
KCH1 241533Z 17012KT 23/18 A2988 RMK A01 T02310179  RH  073%=      5-min Rain = 0
KCH1 241534Z 16010G15KT 23/18 A2989 RMK A01 T02310182  RH  074%=      5-min Rain = 0
KCH1 241535Z 17015G20KT 23/18 A2988 RMK A01 T02320182  RH  073%=      5-min Rain = 0
KCH1 241536Z 18012KT 23/18 A2988 RMK A01 T02340181  RH  072%=      5-min Rain = 0
KCH1 241537Z 17013G18KT 23/18 A2988 RMK A01 T02340182  RH  073%=      5-min Rain = 0
KCH1 241538Z 17013KT 24/18 A2988 RMK A01 T02350180  RH  071%=      5-min Rain = 0
KCH1 241539Z 18012KT 23/18 A2988 RMK A01 T02340182  RH  072%=      5-min Rain = 0
KCH1 241540Z 18012KT 23/18 A2988 RMK A01 T02340181  RH  072%=      5-min Rain = 0
KCH1 241541Z 17015KT 23/18 A2988 RMK A01 T02340181  RH  072%=      5-min Rain = 0
KCH1 241542Z 17011KT 23/18 A2988 RMK A01 T02340180  RH  072%=      5-min Rain = 0
KCH1 241543Z 15010G16KT 23/18 A2988 RMK A01 T02340182  RH  073%=      5-min Rain = 0
KCH1 241544Z 17014KT 24/18 A2988 RMK A01 T02360183  RH  072%=      5-min Rain = 0
KCH1 241545Z 17011KT 24/18 A2988 RMK A01 T02360183  RH  072%=      5-min Rain = 0
KCH1 241546Z 17010KT 24/18 A2988 RMK A01 T02360183  RH  072%=      5-min Rain = 0
KCH1 241547Z 18009G14KT 24/19 A2988 RMK A01 T02380187  RH  073%=      5-min Rain = 0
KCH1 241548Z 17010KT 24/19 A2988 RMK A01 T02410186  RH  071%=      5-min Rain = 0
KCH1 241549Z 16014KT 24/18 A2988 RMK A01 T02420184  RH  070%=      5-min Rain = 0
KCH1 241550Z 17013G19KT 24/18 A2988 RMK A01 T02400182  RH  070%=      5-min Rain = 0
KCH1 241551Z 16011KT 24/18 A2988 RMK A01 T02370182  RH  071%=      5-min Rain = 0
KCH1 241552Z 16008KT 24/18 A2988 RMK A01 T02360183  RH  072%=      5-min Rain = 0
KCH1 241553Z 16010G15KT 24/19 A2988 RMK A01 T02360185  RH  073%=      5-min Rain = 0
KCH1 241554Z 16010KT 24/19 A2988 RMK A01 T02360185  RH  073%=      5-min Rain = 0
KCH1 241555Z 17010KT 24/18 A2988 RMK A01 T02360183  RH  072%=      5-min Rain = 0
KCH1 241556Z 18009KT 24/18 A2988 RMK A01 T02360184  RH  072%=      5-min Rain = 0
KCH1 241557Z 18012KT 24/18 A2988 RMK A01 T02370184  RH  072%=      5-min Rain = 0
KCH1 241558Z 16008KT 24/19 A2988 RMK A01 T02380187  RH  073%=      5-min Rain = 0
KCH1 241559Z 16011G16KT 24/19 A2988 RMK A01 T02400189  RH  073%=      5-min Rain = 0
KCH1 241600Z 17014KT 24/19 A2988 RMK A01 T02410185  RH  071%=      5-min Rain = 0
KCH1 241601Z 16014KT 24/18 A2988 RMK A01 T02410184  RH  071%=      5-min Rain = 0
KCH1 241602Z 17012KT 24/18 A2988 RMK A01 T02400184  RH  071%=      5-min Rain = 0
KCH1 241603Z 17012KT 24/19 A2988 RMK A01 T02390185  RH  072%=      5-min Rain = 0
KCH1 241604Z 15014G19KT 24/18 A2988 RMK A01 T02400184  RH  071%=      5-min Rain = 0
KCH1 241605Z 16013G20KT 24/19 A2988 RMK A01 T02410185  RH  071%=      5-min Rain = 0
KCH1 241606Z 15012KT 24/19 A2988 RMK A01 T02420185  RH  070%=      5-min Rain = 0
KCH1 241607Z 17014KT 24/19 A2988 RMK A01 T02420185  RH  070%=      5-min Rain = 0
KCH1 241608Z 17014KT 24/19 A2988 RMK A01 T02420185  RH  071%=      5-min Rain = 0
KCH1 241609Z 19014G19KT 24/18 A2988 RMK A01 T02430184  RH  070%=      5-min Rain = 0
KCH1 241610Z 18011KT 24/19 A2988 RMK A01 T02430186  RH  071%=      5-min Rain = 0
KCH1 241611Z 16011G16KT 25/19 A2988 RMK A01 T02450188  RH  070%=      5-min Rain = 0
KCH1 241612Z 17011G16KT 25/19 A2988 RMK A01 T02450186  RH  069%=      5-min Rain = 0
KCH1 241613Z 17014KT 25/19 A2988 RMK A01 T02460187  RH  070%=      5-min Rain = 0
KCH1 241614Z 17015KT 25/19 A2988 RMK A01 T02470186  RH  069%=      5-min Rain = 0
KCH1 241615Z 16014KT 25/19 A2987 RMK A01 T02470186  RH  069%=      5-min Rain = 0
KCH1 241616Z 17014KT 25/18 A2987 RMK A01 T02460184  RH  068%=      5-min Rain = 0
KCH1 241617Z 18010KT 25/19 A2987 RMK A01 T02450186  RH  069%=      5-min Rain = 0
KCH1 241618Z 17010KT 25/19 A2987 RMK A01 T02450187  RH  070%=      5-min Rain = 0
KCH1 241619Z 17009KT 25/19 A2988 RMK A01 T02460189  RH  070%=      5-min Rain = 0
KCH1 241620Z 16007KT 25/19 A2987 RMK A01 T02480190  RH  070%=      5-min Rain = 0
KCH1 241621Z 16007G12KT 25/19 A2987 RMK A01 T02490190  RH  070%=      5-min Rain = 0
KCH1 241622Z 18010KT 25/19 A2987 RMK A01 T02500192  RH  070%=      5-min Rain = 0
KCH1 241623Z 19012KT 25/19 A2987 RMK A01 T02510188  RH  068%=      5-min Rain = 0
KCH1 241624Z 17013G18KT 25/19 A2987 RMK A01 T02480188  RH  069%=      5-min Rain = 0
KCH1 241625Z 16015KT 25/19 A2987 RMK A01 T02470187  RH  069%=      5-min Rain = 0
KCH1 241626Z 17011G16KT 25/19 A2987 RMK A01 T02470188  RH  070%=      5-min Rain = 0
KCH1 241627Z 18011KT 25/19 A2987 RMK A01 T02470189  RH  070%=      5-min Rain = 0
KCH1 241628Z 18013KT 25/19 A2987 RMK A01 T02470188  RH  069%=      5-min Rain = 0
KCH1 241629Z 17010KT 25/19 A2987 RMK A01 T02470189  RH  070%=      5-min Rain = 0
KCH1 241630Z 17010KT 25/19 A2987 RMK A01 T02480190  RH  070%=      5-min Rain = 0
KCH1 241631Z 16010KT 25/19 A2987 RMK A01 T02500191  RH  070%=      5-min Rain = 0
KCH1 241632Z 16012KT 25/19 A2987 RMK A01 T02520191  RH  069%=      5-min Rain = 0
KCH1 241633Z 16013KT 25/19 A2987 RMK A01 T02540191  RH  068%=      5-min Rain = 0
KCH1 241634Z 17009KT 26/19 A2987 RMK A01 T02550190  RH  067%=      5-min Rain = 0
KCH1 241635Z 16010G18KT 25/20 A2987 RMK A01 T02540195  RH  070%=      5-min Rain = 0
KCH1 241636Z 16012KT 26/19 A2987 RMK A01 T02550191  RH  067%=      5-min Rain = 0
KCH1 241637Z 16012KT 26/19 A2987 RMK A01 T02550191  RH  068%=      5-min Rain = 0
KCH1 241638Z 16013KT 25/19 A2987 RMK A01 T02540190  RH  068%=      5-min Rain = 0
KCH1 241639Z 17013KT 25/19 A2987 RMK A01 T02530191  RH  069%=      5-min Rain = 0
KCH1 241640Z 17011KT 25/19 A2987 RMK A01 T02520189  RH  068%=      5-min Rain = 0
KCH1 241641Z 17011G20KT 25/19 A2987 RMK A01 T02520192  RH  069%=      5-min Rain = 0
KCH1 241642Z 16017KT 25/19 A2987 RMK A01 T02530190  RH  068%=      5-min Rain = 0
KCH1 241643Z 16012G19KT 25/19 A2987 RMK A01 T02540190  RH  068%=      5-min Rain = 0
KCH1 241644Z 16014G20KT 25/19 A2987 RMK A01 T02540190  RH  068%=      5-min Rain = 0
KCH1 241645Z 16012KT 25/19 A2987 RMK A01 T02540191  RH  068%=      5-min Rain = 0
KCH1 241646Z 16012KT 26/19 A2987 RMK A01 T02550192  RH  068%=      5-min Rain = 0
KCH1 241647Z 17011G16KT 26/19 A2987 RMK A01 T02550192  RH  068%=      5-min Rain = 0
KCH1 241648Z 18012KT 26/19 A2987 RMK A01 T02560192  RH  068%=      5-min Rain = 0
KCH1 241649Z 17013G18KT 26/19 A2987 RMK A01 T02560191  RH  067%=      5-min Rain = 0
KCH1 241650Z 18012KT 26/19 A2987 RMK A01 T02550190  RH  067%=      5-min Rain = 0
KCH1 241651Z 17011KT 26/19 A2987 RMK A01 T02550191  RH  068%=      5-min Rain = 0
KCH1 241652Z 16014KT 26/19 A2987 RMK A01 T02560191  RH  067%=      5-min Rain = 0
KCH1 241653Z 16011KT 26/19 A2987 RMK A01 T02570191  RH  067%=      5-min Rain = 0
KCH1 241654Z 17013KT 26/19 A2987 RMK A01 T02570193  RH  068%=      5-min Rain = 0
KCH1 241655Z 17016KT 26/19 A2987 RMK A01 T02570190  RH  066%=      5-min Rain = 0
KCH1 241656Z 16011KT 26/19 A2987 RMK A01 T02570192  RH  067%=      5-min Rain = 0
KCH1 241657Z 17009KT 26/19 A2987 RMK A01 T02580192  RH  067%=      5-min Rain = 0
KCH1 241658Z 16013KT 26/19 A2987 RMK A01 T02580192  RH  067%=      5-min Rain = 0
KCH1 241659Z 18012KT 26/19 A2987 RMK A01 T02580192  RH  067%=      5-min Rain = 0
KCH1 241700Z 17013KT 26/19 A2987 RMK A01 T02590191  RH  066%=      5-min Rain = 0
KCH1 241701Z 18011KT 26/19 A2987 RMK A01 T02590192  RH  066%=      5-min Rain = 0
KCH1 241702Z 18011KT 26/19 A2987 RMK A01 T02590191  RH  066%=      5-min Rain = 0
KCH1 241703Z 19011KT 26/19 A2987 RMK A01 T02590192  RH  067%=      5-min Rain = 0
KCH1 241704Z 19012KT 26/19 A2987 RMK A01 T02580192  RH  067%=      5-min Rain = 0
KCH1 241705Z 17009G14KT 26/19 A2987 RMK A01 T02580193  RH  067%=      5-min Rain = 0
KCH1 241706Z 17010KT 26/20 A2987 RMK A01 T02600195  RH  068%=      5-min Rain = 0
KCH1 241707Z 16011G17KT 26/20 A2987 RMK A01 T02610195  RH  067%=      5-min Rain = 0
KCH1 241708Z 17012KT 26/19 A2987 RMK A01 T02620192  RH  066%=      5-min Rain = 0
KCH1 241709Z 15010KT 26/19 A2987 RMK A01 T02620194  RH  066%=      5-min Rain = 0
KCH1 241710Z 15011KT 26/20 A2987 RMK A01 T02620195  RH  067%=      5-min Rain = 0
KCH1 241711Z 15010KT 26/20 A2987 RMK A01 T02640197  RH  067%=      5-min Rain = 0
KCH1 241712Z 18011KT 27/20 A2986 RMK A01 T02680197  RH  065%=      5-min Rain = 0
KCH1 241713Z 19011KT 27/20 A2986 RMK A01 T02710197  RH  064%=      5-min Rain = 0
KCH1 241714Z 18012G17KT 27/20 A2986 RMK A01 T02710196  RH  063%=      5-min Rain = 0
KCH1 241715Z 16009KT 27/20 A2986 RMK A01 T02700199  RH  065%=      5-min Rain = 0
KCH1 241716Z 17010KT 27/20 A2986 RMK A01 T02710200  RH  065%=      5-min Rain = 0
KCH1 241717Z 18010G18KT 27/20 A2986 RMK A01 T02730200  RH  064%=      5-min Rain = 0
KCH1 241718Z 17016G21KT 28/20 A2986 RMK A01 T02750196  RH  062%=      5-min Rain = 0
KCH1 241719Z 17013KT 28/20 A2986 RMK A01 T02750198  RH  063%=      5-min Rain = 0
KCH1 241720Z 18014KT 28/20 A2986 RMK A01 T02760197  RH  062%=      5-min Rain = 0
KCH1 241721Z 17013KT 28/20 A2986 RMK A01 T02750196  RH  062%=      5-min Rain = 0
KCH1 241722Z 19014KT 28/20 A2986 RMK A01 T02760197  RH  062%=      5-min Rain = 0
KCH1 241723Z 18013KT 28/20 A2986 RMK A01 T02760196  RH  062%=      5-min Rain = 0
KCH1 241724Z 17015KT 28/20 A2986 RMK A01 T02760196  RH  062%=      5-min Rain = 0
KCH1 241725Z 16016G21KT 27/19 A2986 RMK A01 T02740194  RH  062%=      5-min Rain = 0
KCH1 241726Z 15014G19KT 27/19 A2986 RMK A01 T02730194  RH  062%=      5-min Rain = 0
KCH1 241727Z 16013KT 27/20 A2986 RMK A01 T02710195  RH  063%=      5-min Rain = 0
KCH1 241728Z 18015G20KT 27/20 A2986 RMK A01 T02710196  RH  064%=      5-min Rain = 0
KCH1 241729Z 18011KT 27/19 A2986 RMK A01 T02700194  RH  063%=      5-min Rain = 0
KCH1 241730Z 18014KT 27/19 A2986 RMK A01 T02690193  RH  063%=      5-min Rain = 0
KCH1 241731Z 18012KT 27/20 A2986 RMK A01 T02680195  RH  064%=      5-min Rain = 0
KCH1 241732Z 17014KT 27/19 A2986 RMK A01 T02690194  RH  064%=      5-min Rain = 0
KCH1 241733Z 19009KT 27/20 A2986 RMK A01 T02700196  RH  064%=      5-min Rain = 0
KCH1 241734Z 15011G16KT 27/20 A2986 RMK A01 T02710198  RH  064%=      5-min Rain = 0
KCH1 241735Z 16013KT 27/20 A2986 RMK A01 T02720196  RH  063%=      5-min Rain = 0
KCH1 241736Z 17009G14KT 27/20 A2986 RMK A01 T02730199  RH  064%=      5-min Rain = 0
KCH1 241737Z 16011G16KT 28/20 A2986 RMK A01 T02750199  RH  063%=      5-min Rain = 0
KCH1 241738Z 17012KT 28/20 A2986 RMK A01 T02770198  RH  062%=      5-min Rain = 0
KCH1 241739Z 16013G18KT 28/20 A2986 RMK A01 T02770197  RH  062%=      5-min Rain = 0
KCH1 241740Z 16012KT 28/20 A2986 RMK A01 T02770199  RH  063%=      5-min Rain = 0
KCH1 241741Z 17013KT 28/20 A2986 RMK A01 T02790197  RH  061%=      5-min Rain = 0
KCH1 241742Z 16012G18KT 28/20 A2986 RMK A01 T02790198  RH  061%=      5-min Rain = 0
KCH1 241743Z 16014KT 28/20 A2986 RMK A01 T02790196  RH  061%=      5-min Rain = 0
KCH1 241744Z 17012KT 28/20 A2986 RMK A01 T02770196  RH  061%=      5-min Rain = 0
KCH1 241745Z 17012KT 28/20 A2985 RMK A01 T02760197  RH  062%=      5-min Rain = 0
KCH1 241746Z 17011G17KT 28/20 A2985 RMK A01 T02770198  RH  062%=      5-min Rain = 0
KCH1 241747Z 17010KT 28/20 A2986 RMK A01 T02780198  RH  062%=      5-min Rain = 0
KCH1 241748Z 16008KT 28/20 A2985 RMK A01 T02790198  RH  061%=      5-min Rain = 0
KCH1 241749Z 18011G16KT 28/20 A2985 RMK A01 T02800199  RH  061%=      5-min Rain = 0
KCH1 241750Z 18012KT 28/20 A2985 RMK A01 T02800195  RH  060%=      5-min Rain = 0
KCH1 241751Z 18011KT 28/20 A2985 RMK A01 T02770195  RH  061%=      5-min Rain = 0
KCH1 241752Z 17015KT 28/20 A2985 RMK A01 T02760196  RH  062%=      5-min Rain = 0
KCH1 241753Z 18016KT 28/19 A2985 RMK A01 T02760192  RH  060%=      5-min Rain = 0
KCH1 241754Z 20016G21KT 28/19 A2985 RMK A01 T02760193  RH  061%=      5-min Rain = 0
KCH1 241755Z 19015G20KT 28/20 A2985 RMK A01 T02770195  RH  061%=      5-min Rain = 0
KCH1 241756Z 18013KT 28/20 A2985 RMK A01 T02790195  RH  060%=      5-min Rain = 0
KCH1 241757Z 17011G17KT 28/20 A2985 RMK A01 T02800196  RH  060%=      5-min Rain = 0
KCH1 241758Z 17017G22KT 28/19 A2985 RMK A01 T02800194  RH  060%=      5-min Rain = 0
KCH1 241759Z 17011KT 28/20 A2985 RMK A01 T02810196  RH  060%=      5-min Rain = 0
KCH1 241800Z 18013KT 28/20 A2985 RMK A01 T02810197  RH  060%=      5-min Rain = 0
KCH1 241801Z 17016KT 28/20 A2985 RMK A01 T02810196  RH  060%=      5-min Rain = 0
KCH1 241802Z 18013KT 28/20 A2985 RMK A01 T02800196  RH  060%=      5-min Rain = 0
KCH1 241803Z 18013KT 28/20 A2985 RMK A01 T02800195  RH  060%=      5-min Rain = 0
KCH1 241804Z 16015G21KT 28/19 A2984 RMK A01 T02790194  RH  060%=      5-min Rain = 0
KCH1 241805Z 17013G19KT 28/20 A2984 RMK A01 T02780195  RH  061%=      5-min Rain = 0
KCH1 241806Z 19013KT 28/19 A2984 RMK A01 T02790193  RH  059%=      5-min Rain = 0
KCH1 241807Z 17012KT 28/20 A2984 RMK A01 T02790196  RH  060%=      5-min Rain = 0
KCH1 241808Z 18014KT 28/20 A2984 RMK A01 T02800197  RH  061%=      5-min Rain = 0
KCH1 241809Z 18014KT 28/19 A2984 RMK A01 T02800194  RH  059%=      5-min Rain = 0
KCH1 241810Z 18012KT 28/19 A2984 RMK A01 T02790193  RH  060%=      5-min Rain = 0
KCH1 241811Z 18011G16KT 28/20 A2984 RMK A01 T02790195  RH  061%=      5-min Rain = 0
KCH1 241812Z 19011KT 28/20 A2984 RMK A01 T02800195  RH  060%=      5-min Rain = 0
KCH1 241813Z 19011KT 28/19 A2984 RMK A01 T02810193  RH  059%=      5-min Rain = 0
KCH1 241814Z 18009KT 28/20 A2984 RMK A01 T02840198  RH  060%=      5-min Rain = 0
KCH1 241815Z 19013G19KT 29/20 A2984 RMK A01 T02880197  RH  058%=      5-min Rain = 0
KCH1 241816Z 18015G20KT 29/20 A2984 RMK A01 T02900195  RH  057%=      5-min Rain = 0
KCH1 241817Z 18010KT 29/20 A2984 RMK A01 T02900198  RH  058%=      5-min Rain = 0
KCH1 241818Z 16011G16KT 29/20 A2984 RMK A01 T02910200  RH  058%=      5-min Rain = 0
KCH1 241819Z 16013KT 29/20 A2983 RMK A01 T02930199  RH  057%=      5-min Rain = 0
KCH1 241820Z 17012G17KT 29/20 A2984 RMK A01 T02930198  RH  057%=      5-min Rain = 0
KCH1 241821Z 17016KT 29/20 A2983 RMK A01 T02920197  RH  056%=      5-min Rain = 0
KCH1 241822Z 18012KT 29/20 A2983 RMK A01 T02900198  RH  057%=      5-min Rain = 0
KCH1 241823Z 17012KT 29/20 A2983 RMK A01 T02900196  RH  057%=      5-min Rain = 0
KCH1 241824Z 17016G21KT 29/20 A2983 RMK A01 T02920197  RH  057%=      5-min Rain = 0
KCH1 241825Z 17015KT 29/20 A2983 RMK A01 T02920195  RH  056%=      5-min Rain = 0
KCH1 241826Z 17015G21KT 29/20 A2983 RMK A01 T02910195  RH  056%=      5-min Rain = 0
KCH1 241827Z 19012KT 29/20 A2983 RMK A01 T02900195  RH  056%=      5-min Rain = 0
KCH1 241828Z 18011KT 29/20 A2983 RMK A01 T02900195  RH  057%=      5-min Rain = 0
KCH1 241829Z 17010KT 29/20 A2983 RMK A01 T02930199  RH  057%=      5-min Rain = 0
KCH1 241830Z 18011G16KT 30/20 A2983 RMK A01 T02970200  RH  056%=      5-min Rain = 0
KCH1 241831Z 19016KT 30/19 A2983 RMK A01 T02990193  RH  053%=      5-min Rain = 0
KCH1 241832Z 18012G17KT 30/19 A2982 RMK A01 T02970191  RH  053%=      5-min Rain = 0
KCH1 241833Z 18009KT 30/20 A2982 RMK A01 T02960195  RH  055%=      5-min Rain = 0
KCH1 241834Z 19011KT 30/20 A2982 RMK A01 T02970195  RH  054%=      5-min Rain = 0
KCH1 241835Z 18011KT 30/20 A2982 RMK A01 T02990196  RH  054%=      5-min Rain = 0
KCH1 241836Z 18008G13KT 30/20 A2982 RMK A01 T02990195  RH  054%=      5-min Rain = 0
KCH1 241837Z 18010KT 30/19 A2982 RMK A01 T02970192  RH  053%=      5-min Rain = 0
KCH1 241838Z 16012G17KT 30/20 A2982 RMK A01 T02950195  RH  055%=      5-min Rain = 0
KCH1 241839Z 17015G21KT 30/19 A2982 RMK A01 T02960193  RH  054%=      5-min Rain = 0
KCH1 241840Z 16016G21KT 30/19 A2982 RMK A01 T02970188  RH  052%=      5-min Rain = 0
KCH1 241841Z 18007KT 30/19 A2982 RMK A01 T02950192  RH  054%=      5-min Rain = 0
KCH1 241842Z 17013G18KT 30/19 A2982 RMK A01 T02950190  RH  053%=      5-min Rain = 0
KCH1 241843Z 18014KT 29/19 A2982 RMK A01 T02940188  RH  053%=      5-min Rain = 0
KCH1 241844Z 17015G22KT 29/19 A2982 RMK A01 T02920188  RH  054%=      5-min Rain = 0
KCH1 241845Z 17013KT 29/19 A2981 RMK A01 T02920188  RH  054%=      5-min Rain = 0
KCH1 241846Z 16014KT 29/19 A2981 RMK A01 T02930189  RH  053%=      5-min Rain = 0
KCH1 241847Z 16012KT 29/19 A2981 RMK A01 T02940191  RH  054%=      5-min Rain = 0
KCH1 241848Z 17013KT 30/19 A2981 RMK A01 T02950190  RH  053%=      5-min Rain = 0
KCH1 241849Z 19011G16KT 30/19 A2981 RMK A01 T02960191  RH  054%=      5-min Rain = 0
KCH1 241850Z 19014G20KT 30/19 A2981 RMK A01 T02970191  RH  053%=      5-min Rain = 0
KCH1 241851Z 18015KT 30/19 A2981 RMK A01 T02970188  RH  052%=      5-min Rain = 0
KCH1 241852Z 18018G24KT 30/19 A2981 RMK A01 T02980189  RH  052%=      5-min Rain = 0
KCH1 241853Z 18017KT 30/19 A2981 RMK A01 T02980187  RH  051%=      5-min Rain = 0
KCH1 241854Z 17015G20KT 30/19 A2981 RMK A01 T02970188  RH  052%=      5-min Rain = 0
KCH1 241855Z 18013G19KT 30/19 A2981 RMK A01 T02970189  RH  052%=      5-min Rain = 0
KCH1 241856Z 19013KT 30/19 A2981 RMK A01 T02990189  RH  052%=      5-min Rain = 0
KCH1 241857Z 20015KT 30/19 A2981 RMK A01 T03000187  RH  051%=      5-min Rain = 0
KCH1 241858Z 18011KT 30/19 A2981 RMK A01 T02990188  RH  051%=      5-min Rain = 0
KCH1 241859Z 18011G16KT 30/19 A2981 RMK A01 T03000191  RH  052%=      5-min Rain = 0
KCH1 241900Z 17015KT 30/19 A2981 RMK A01 T03010189  RH  051%=      5-min Rain = 0
KCH1 241901Z 17010KT 30/19 A2981 RMK A01 T03000191  RH  052%=      5-min Rain = 0
KCH1 241902Z 16009KT 30/19 A2981 RMK A01 T02990194  RH  053%=      5-min Rain = 0
KCH1 241903Z 19011G16KT 30/19 A2981 RMK A01 T02990192  RH  053%=      5-min Rain = 0
KCH1 241904Z 17009KT 30/19 A2981 RMK A01 T03000194  RH  053%=      5-min Rain = 0
KCH1 241905Z 16011G16KT 30/19 A2981 RMK A01 T03020194  RH  052%=      5-min Rain = 0
KCH1 241906Z 17014G20KT 30/19 A2981 RMK A01 T03040192  RH  051%=      5-min Rain = 0
KCH1 241907Z 18012KT 30/19 A2981 RMK A01 T03040192  RH  051%=      5-min Rain = 0
KCH1 241908Z 18012KT 30/19 A2981 RMK A01 T03040192  RH  051%=      5-min Rain = 0
KCH1 241909Z 18009G14KT 30/19 A2981 RMK A01 T03040193  RH  052%=      5-min Rain = 0
KCH1 241910Z 18010KT 31/19 A298 RMK A01 T03050194  RH  051%=      5-min Rain = 0
KCH1 241911Z 19006KT 31/20 A298 RMK A01 T03080195  RH  051%=      5-min Rain = 0
KCH1 241912Z 17015G20KT 31/19 A298 RMK A01 T03090191  RH  049%=      5-min Rain = 0
KCH1 241913Z 16014G20KT 30/19 A298 RMK A01 T03040190  RH  051%=      5-min Rain = 0
KCH1 241914Z 17014KT 30/19 A298 RMK A01 T02990187  RH  051%=      5-min Rain = 0
KCH1 241915Z 19013KT 30/19 A298 RMK A01 T02970188  RH  052%=      5-min Rain = 0
KCH1 241916Z 19016KT 30/19 A298 RMK A01 T02970188  RH  052%=      5-min Rain = 0
KCH1 241917Z 19011KT 30/19 A298 RMK A01 T02990189  RH  052%=      5-min Rain = 0
KCH1 241918Z 18010KT 30/19 A298 RMK A01 T03030191  RH  051%=      5-min Rain = 0
KCH1 241919Z 19007KT 31/19 A298 RMK A01 T03060193  RH  051%=      5-min Rain = 0
KCH1 241920Z 19011G16KT 31/19 A2979 RMK A01 T03080192  RH  050%=      5-min Rain = 0
KCH1 241921Z 19009KT 31/19 A298 RMK A01 T03050190  RH  050%=      5-min Rain = 0
KCH1 241922Z 19010KT 30/19 A298 RMK A01 T03030191  RH  051%=      5-min Rain = 0
KCH1 241923Z 20011G19KT 30/19 A2979 RMK A01 T03040192  RH  051%=      5-min Rain = 0
KCH1 241924Z 20013KT 31/19 A2979 RMK A01 T03050186  RH  049%=      5-min Rain = 0
KCH1 241925Z 19012G19KT 31/19 A2979 RMK A01 T03050188  RH  050%=      5-min Rain = 0
KCH1 241926Z 18016KT 31/19 A2979 RMK A01 T03050185  RH  049%=      5-min Rain = 0
KCH1 241927Z 18016KT 30/19 A2979 RMK A01 T03040187  RH  050%=      5-min Rain = 0
KCH1 241928Z 18013G19KT 31/19 A2979 RMK A01 T03050187  RH  049%=      5-min Rain = 0
KCH1 241929Z 18016KT 31/19 A2979 RMK A01 T03050185  RH  049%=      5-min Rain = 0
KCH1 241930Z 18016KT 31/19 A2979 RMK A01 T03050186  RH  049%=      5-min Rain = 0
KCH1 241931Z 20013KT 31/19 A2979 RMK A01 T03050186  RH  049%=      5-min Rain = 0
KCH1 241932Z 22014G19KT 31/19 A2979 RMK A01 T03050188  RH  050%=      5-min Rain = 0
KCH1 241933Z 21012KT 31/19 A2979 RMK A01 T03070188  RH  049%=      5-min Rain = 0
KCH1 241934Z 20011KT 31/19 A2979 RMK A01 T03070187  RH  049%=      5-min Rain = 0
KCH1 241935Z 20012G19KT 31/19 A2979 RMK A01 T03060188  RH  049%=      5-min Rain = 0
KCH1 241936Z 21013KT 30/19 A2978 RMK A01 T03040187  RH  050%=      5-min Rain = 0
KCH1 241937Z 20014KT 30/19 A2978 RMK A01 T03040187  RH  050%=      5-min Rain = 0
KCH1 241938Z 18014KT 31/19 A2978 RMK A01 T03050189  RH  050%=      5-min Rain = 0
KCH1 241939Z 18011KT 31/19 A2978 RMK A01 T03060188  RH  049%=      5-min Rain = 0
KCH1 241940Z 17014G20KT 31/19 A2978 RMK A01 T03070190  RH  050%=      5-min Rain = 0
KCH1 241941Z 16015G20KT 31/19 A2978 RMK A01 T03080190  RH  049%=      5-min Rain = 0
KCH1 241942Z 16014KT 31/19 A2978 RMK A01 T03090189  RH  049%=      5-min Rain = 0
KCH1 241943Z 18013KT 31/19 A2978 RMK A01 T03080190  RH  050%=      5-min Rain = 0
KCH1 241944Z 19015G20KT 31/19 A2978 RMK A01 T03060188  RH  049%=      5-min Rain = 0
KCH1 241945Z 18013G18KT 30/19 A2978 RMK A01 T03040187  RH  049%=      5-min Rain = 0
KCH1 241946Z 18008KT 31/19 A2978 RMK A01 T03050187  RH  049%=      5-min Rain = 0
KCH1 241947Z 18007KT 31/19 A2978 RMK A01 T03060188  RH  049%=      5-min Rain = 0
KCH1 241948Z 18011KT 31/19 A2978 RMK A01 T03090192  RH  050%=      5-min Rain = 0
KCH1 241949Z 19014KT 31/19 A2978 RMK A01 T03110188  RH  048%=      5-min Rain = 0
KCH1 241950Z 18010KT 31/19 A2978 RMK A01 T03110191  RH  049%=      5-min Rain = 0
KCH1 241951Z 18011KT 31/19 A2978 RMK A01 T03140192  RH  049%=      5-min Rain = 0
KCH1 241952Z 17011KT 32/19 A2977 RMK A01 T03150190  RH  047%=      5-min Rain = 0
KCH1 241953Z 17014G21KT 31/19 A2977 RMK A01 T03130189  RH  048%=      5-min Rain = 0
KCH1 241954Z 18012KT 31/19 A2977 RMK A01 T03080188  RH  049%=      5-min Rain = 0
KCH1 241955Z 18010KT 30/19 A2977 RMK A01 T03040189  RH  050%=      5-min Rain = 0
KCH1 241956Z 19011KT 30/19 A2977 RMK A01 T03030190  RH  051%=      5-min Rain = 0
KCH1 241957Z 18009KT 30/19 A2977 RMK A01 T03020190  RH  051%=      5-min Rain = 0
KCH1 241958Z 18011KT 30/19 A2977 RMK A01 T03020189  RH  051%=      5-min Rain = 0
KCH1 241959Z 15011KT 30/19 A2977 RMK A01 T03030192  RH  052%=      5-min Rain = 0
KCH1 242000Z 15012G17KT 31/19 A2977 RMK A01 T03060191  RH  050%=      5-min Rain = 0
KCH1 242001Z 16010KT 31/19 A2977 RMK A01 T03070192  RH  050%=      5-min Rain = 0
KCH1 242002Z 15012KT 31/19 A2977 RMK A01 T03070190  RH  050%=      5-min Rain = 0
KCH1 242003Z 17009KT 31/19 A2977 RMK A01 T03070190  RH  050%=      5-min Rain = 0
KCH1 242004Z 17008KT 31/20 A2977 RMK A01 T03100195  RH  050%=      5-min Rain = 0
KCH1 242005Z 17010G15KT 31/20 A2977 RMK A01 T03140195  RH  049%=      5-min Rain = 0
KCH1 242006Z 16012KT 32/19 A2977 RMK A01 T03160190  RH  047%=      5-min Rain = 0
KCH1 242007Z 16012KT 32/20 A2977 RMK A01 T03150195  RH  049%=      5-min Rain = 0
KCH1 242008Z 16011KT 32/19 A2977 RMK A01 T03150193  RH  048%=      5-min Rain = 0
KCH1 242009Z 15011KT 31/19 A2976 RMK A01 T03140192  RH  048%=      5-min Rain = 0
KCH1 242010Z 16011KT 31/19 A2976 RMK A01 T03110191  RH  049%=      5-min Rain = 0
KCH1 242011Z 16011KT 31/19 A2976 RMK A01 T03090193  RH  050%=      5-min Rain = 0
KCH1 242012Z 18009KT 31/19 A2976 RMK A01 T03090190  RH  049%=      5-min Rain = 0
KCH1 242013Z 17009G17KT 31/19 A2976 RMK A01 T03080193  RH  050%=      5-min Rain = 0
KCH1 242014Z 18009KT 31/19 A2976 RMK A01 T03080193  RH  050%=      5-min Rain = 0
KCH1 242015Z 19006G13KT 31/20 A2976 RMK A01 T03110198  RH  051%=      5-min Rain = 0
KCH1 242016Z 19011G18KT 32/19 A2976 RMK A01 T03160194  RH  048%=      5-min Rain = 0
KCH1 242017Z 19012G17KT 32/19 A2976 RMK A01 T03180191  RH  047%=      5-min Rain = 0
KCH1 242018Z 20012G18KT 32/19 A2976 RMK A01 T03180189  RH  046%=      5-min Rain = 0
KCH1 242019Z 18012G17KT 32/19 A2976 RMK A01 T03160188  RH  047%=      5-min Rain = 0
KCH1 242020Z 18013KT 32/19 A2976 RMK A01 T03150190  RH  047%=      5-min Rain = 0
KCH1 242021Z 17012KT 31/19 A2976 RMK A01 T03120186  RH  047%=      5-min Rain = 0
KCH1 242022Z 19010KT 31/19 A2976 RMK A01 T03080188  RH  049%=      5-min Rain = 0
KCH1 242023Z 19013G19KT 31/19 A2976 RMK A01 T03060187  RH  049%=      5-min Rain = 0
KCH1 242024Z 18011G16KT 31/19 A2976 RMK A01 T03060186  RH  049%=      5-min Rain = 0
KCH1 242025Z 19010KT 31/19 A2975 RMK A01 T03060186  RH  049%=      5-min Rain = 0
KCH1 242026Z 19009KT 31/19 A2975 RMK A01 T03070187  RH  049%=      5-min Rain = 0
KCH1 242027Z 19009KT 31/19 A2975 RMK A01 T03110188  RH  048%=      5-min Rain = 0
KCH1 242028Z 21009KT 31/19 A2975 RMK A01 T03140188  RH  047%=      5-min Rain = 0
KCH1 242029Z 21012KT 32/19 A2975 RMK A01 T03170189  RH  047%=      5-min Rain = 0
KCH1 242030Z 20013KT 32/19 A2975 RMK A01 T03180186  RH  046%=      5-min Rain = 0
KCH1 242031Z 19010G15KT 32/19 A2975 RMK A01 T03170188  RH  046%=      5-min Rain = 0
KCH1 242032Z 21009KT 32/19 A2975 RMK A01 T03190187  RH  046%=      5-min Rain = 0
KCH1 242033Z 18009KT 32/19 A2975 RMK A01 T03200190  RH  046%=      5-min Rain = 0
KCH1 242034Z 18009KT 32/19 A2975 RMK A01 T03220190  RH  046%=      5-min Rain = 0
KCH1 242035Z 16014KT 32/19 A2975 RMK A01 T03230191  RH  046%=      5-min Rain = 0
KCH1 242036Z 17014KT 32/19 A2975 RMK A01 T03200187  RH  045%=      5-min Rain = 0
KCH1 242037Z 17012G17KT 32/19 A2975 RMK A01 T03170188  RH  046%=      5-min Rain = 0
KCH1 242038Z 19011KT 32/19 A2975 RMK A01 T03160191  RH  047%=      5-min Rain = 0
KCH1 242039Z 17014KT 32/19 A2974 RMK A01 T03190188  RH  046%=      5-min Rain = 0
KCH1 242040Z 18013KT 32/19 A2974 RMK A01 T03180186  RH  045%=      5-min Rain = 0
KCH1 242041Z 21013G18KT 32/19 A2974 RMK A01 T03160187  RH  046%=      5-min Rain = 0
KCH1 242042Z 20012KT 32/19 A2974 RMK A01 T03160185  RH  046%=      5-min Rain = 0
KCH1 242043Z 20012G21KT 32/18 A2974 RMK A01 T03150183  RH  045%=      5-min Rain = 0
KCH1 242044Z 21011G18KT 31/18 A2974 RMK A01 T03120182  RH  046%=      5-min Rain = 0
KCH1 242045Z 19011KT 31/18 A2974 RMK A01 T03090182  RH  047%=      5-min Rain = 0
KCH1 242046Z 18011G18KT 31/18 A2974 RMK A01 T03080182  RH  047%=      5-min Rain = 0
KCH1 242047Z 18012G17KT 31/19 A2974 RMK A01 T03080186  RH  048%=      5-min Rain = 0
KCH1 242048Z 18010G15KT 31/19 A2974 RMK A01 T03110186  RH  047%=      5-min Rain = 0
KCH1 242049Z 18013G19KT 32/19 A2973 RMK A01 T03160188  RH  047%=      5-min Rain = 0
KCH1 242050Z 18011G17KT 32/19 A2973 RMK A01 T03180187  RH  046%=      5-min Rain = 0
KCH1 242051Z 17012G17KT 32/19 A2973 RMK A01 T03190187  RH  046%=      5-min Rain = 0
KCH1 242052Z 17012KT 32/18 A2973 RMK A01 T03170184  RH  045%=      5-min Rain = 0
KCH1 242053Z 16010G15KT 31/19 A2973 RMK A01 T03130186  RH  047%=      5-min Rain = 0
KCH1 242054Z 16012KT 31/18 A2973 RMK A01 T03100182  RH  046%=      5-min Rain = 0
KCH1 242055Z 16013KT 31/18 A2973 RMK A01 T03070181  RH  047%=      5-min Rain = 0
KCH1 242056Z 17010KT 31/18 A2973 RMK A01 T03050181  RH  048%=      5-min Rain = 0
KCH1 242057Z 17014KT 30/18 A2973 RMK A01 T03040181  RH  048%=      5-min Rain = 0
KCH1 242058Z 18011KT 30/18 A2973 RMK A01 T03040181  RH  048%=      5-min Rain = 0
KCH1 242059Z 18006KT 31/19 A2973 RMK A01 T03080188  RH  049%=      5-min Rain = 0
KCH1 242100Z 17007KT 31/19 A2973 RMK A01 T03140191  RH  048%=      5-min Rain = 0
KCH1 242101Z 16012G19KT 32/19 A2972 RMK A01 T03180189  RH  046%=      5-min Rain = 0
KCH1 242102Z 16015KT 32/19 A2972 RMK A01 T03180185  RH  045%=      5-min Rain = 0
KCH1 242103Z 17010KT 32/19 A2972 RMK A01 T03180187  RH  046%=      5-min Rain = 0
KCH1 242104Z 17014G20KT 32/19 A2972 RMK A01 T03180187  RH  046%=      5-min Rain = 0
KCH1 242105Z 17012KT 32/19 A2972 RMK A01 T03170186  RH  046%=      5-min Rain = 0
KCH1 242106Z 17014KT 31/19 A2972 RMK A01 T03140186  RH  046%=      5-min Rain = 0
KCH1 242107Z 16012KT 31/19 A2972 RMK A01 T03120186  RH  047%=      5-min Rain = 0
KCH1 242108Z 17011G17KT 31/18 A2972 RMK A01 T03110184  RH  047%=      5-min Rain = 0
KCH1 242109Z 17012KT 31/19 A2972 RMK A01 T03100186  RH  048%=      5-min Rain = 0
KCH1 242110Z 16010KT 31/18 A2972 RMK A01 T03100183  RH  047%=      5-min Rain = 0
KCH1 242111Z 16010KT 31/19 A2971 RMK A01 T03120187  RH  047%=      5-min Rain = 0
KCH1 242112Z 17013KT 32/18 A2971 RMK A01 T03160184  RH  046%=      5-min Rain = 0
KCH1 242113Z 14016KT 32/18 A2971 RMK A01 T03170184  RH  045%=      5-min Rain = 0
KCH1 242114Z 14011KT 32/18 A2971 RMK A01 T03160183  RH  045%=      5-min Rain = 0
KCH1 242115Z 16012KT 31/18 A2971 RMK A01 T03140183  RH  046%=      5-min Rain = 0
KCH1 242116Z 17013KT 31/18 A2971 RMK A01 T03110184  RH  047%=      5-min Rain = 0
KCH1 242117Z 17012KT 31/18 A2971 RMK A01 T03090184  RH  047%=      5-min Rain = 0
KCH1 242118Z 18015KT 31/18 A2971 RMK A01 T03080183  RH  047%=      5-min Rain = 0
KCH1 242119Z 18012KT 31/19 A2971 RMK A01 T03090185  RH  047%=      5-min Rain = 0
KCH1 242120Z 18011G16KT 31/18 A2971 RMK A01 T03120184  RH  047%=      5-min Rain = 0
KCH1 242121Z 18011KT 31/19 A2971 RMK A01 T03140188  RH  047%=      5-min Rain = 0
KCH1 242122Z 18009KT 32/18 A2971 RMK A01 T03160184  RH  045%=      5-min Rain = 0
KCH1 242123Z 16009G15KT 32/19 A2971 RMK A01 T03160188  RH  047%=      5-min Rain = 0
KCH1 242124Z 16013KT 32/19 A2971 RMK A01 T03180189  RH  046%=      5-min Rain = 0
KCH1 242125Z 16014KT 32/19 A2971 RMK A01 T03190187  RH  046%=      5-min Rain = 0
KCH1 242126Z 17011KT 32/19 A297 RMK A01 T03190186  RH  045%=      5-min Rain = 0
KCH1 242127Z 18010KT 32/19 A297 RMK A01 T03190186  RH  045%=      5-min Rain = 0
KCH1 242128Z 17011KT 32/19 A297 RMK A01 T03170186  RH  046%=      5-min Rain = 0
KCH1 242129Z 17010KT 32/19 A297 RMK A01 T03170186  RH  046%=      5-min Rain = 0
KCH1 242130Z 16010G16KT 32/19 A297 RMK A01 T03180189  RH  046%=      5-min Rain = 0
KCH1 242131Z 17010KT 32/19 A297 RMK A01 T03190189  RH  046%=      5-min Rain = 0
KCH1 242132Z 15011KT 32/19 A297 RMK A01 T03200185  RH  045%=      5-min Rain = 0
KCH1 242133Z 16010KT 32/19 A297 RMK A01 T03180187  RH  046%=      5-min Rain = 0
KCH1 242134Z 18009KT 32/19 A297 RMK A01 T03160187  RH  046%=      5-min Rain = 0
KCH1 242135Z 17010G15KT 32/19 A297 RMK A01 T03160187  RH  046%=      5-min Rain = 0
KCH1 242136Z 16012KT 32/19 A297 RMK A01 T03170187  RH  046%=      5-min Rain = 0
KCH1 242137Z 16009KT 32/19 A297 RMK A01 T03180187  RH  046%=      5-min Rain = 0
KCH1 242138Z 17009KT 32/19 A297 RMK A01 T03200190  RH  046%=      5-min Rain = 0
KCH1 242139Z 16012KT 32/19 A297 RMK A01 T03210186  RH  045%=      5-min Rain = 0
KCH1 242140Z 16012KT 32/19 A297 RMK A01 T03210186  RH  045%=      5-min Rain = 0
KCH1 242141Z 16012KT 32/18 A297 RMK A01 T03210183  RH  044%=      5-min Rain = 0
KCH1 242142Z 17008KT 32/19 A297 RMK A01 T03180186  RH  045%=      5-min Rain = 0
KCH1 242143Z 18009KT 32/19 A297 RMK A01 T03170185  RH  045%=      5-min Rain = 0
KCH1 242144Z 18008KT 32/19 A297 RMK A01 T03160186  RH  046%=      5-min Rain = 0
KCH1 242145Z 18009KT 32/19 A297 RMK A01 T03160187  RH  046%=      5-min Rain = 0
KCH1 242146Z 18013KT 32/18 A297 RMK A01 T03150184  RH  046%=      5-min Rain = 0
KCH1 242147Z 19013KT 31/18 A297 RMK A01 T03110183  RH  046%=      5-min Rain = 0
KCH1 242148Z 19014G19KT 31/18 A297 RMK A01 T03090183  RH  047%=      5-min Rain = 0
KCH1 242149Z 18013KT 31/18 A2971 RMK A01 T03070184  RH  048%=      5-min Rain = 0
KCH1 242150Z 19013G18KT 31/18 A2971 RMK A01 T03070182  RH  047%=      5-min Rain = 0
KCH1 242151Z 17012KT 31/18 A2971 RMK A01 T03060182  RH  048%=      5-min Rain = 0
KCH1 242152Z 18010KT 31/18 A2971 RMK A01 T03050183  RH  048%=      5-min Rain = 0
KCH1 242153Z 17011KT 30/18 A2971 RMK A01 T03040182  RH  048%=      5-min Rain = 0
KCH1 242154Z 17008KT 30/18 A2971 RMK A01 T03040183  RH  049%=      5-min Rain = 0
KCH1 242155Z 18007KT 30/19 A2971 RMK A01 T03040185  RH  049%=      5-min Rain = 0
KCH1 242156Z 18009KT 30/19 A2971 RMK A01 T03040185  RH  049%=      5-min Rain = 0
KCH1 242157Z 18014KT 30/18 A2971 RMK A01 T03040183  RH  048%=      5-min Rain = 0
KCH1 242158Z 18013KT 30/18 A2971 RMK A01 T03040182  RH  048%=      5-min Rain = 0
KCH1 242159Z 18011KT 30/18 A2971 RMK A01 T03040183  RH  048%=      5-min Rain = 0
KCH1 242200Z 17012KT 31/18 A2971 RMK A01 T03050182  RH  048%=      5-min Rain = 0
KCH1 242201Z 18009KT 31/19 A297 RMK A01 T03070185  RH  048%=      5-min Rain = 0
KCH1 242202Z 18010G16KT 31/19 A297 RMK A01 T03100185  RH  047%=      5-min Rain = 0
KCH1 242203Z 17013KT 31/18 A297 RMK A01 T03130183  RH  046%=      5-min Rain = 0
KCH1 242204Z 18010KT 31/18 A297 RMK A01 T03130184  RH  046%=      5-min Rain = 0
KCH1 242205Z 17009KT 32/19 A297 RMK A01 T03150187  RH  047%=      5-min Rain = 0
KCH1 242206Z 18011KT 32/19 A297 RMK A01 T03180187  RH  046%=      5-min Rain = 0
KCH1 242207Z 16009KT 32/19 A297 RMK A01 T03180188  RH  046%=      5-min Rain = 0
KCH1 242208Z 18010G15KT 32/19 A297 RMK A01 T03180189  RH  046%=      5-min Rain = 0
KCH1 242209Z 18008KT 32/19 A297 RMK A01 T03170187  RH  046%=      5-min Rain = 0
KCH1 242210Z 17007KT 32/19 A297 RMK A01 T03150188  RH  047%=      5-min Rain = 0
KCH1 242211Z 18009KT 32/19 A297 RMK A01 T03150188  RH  047%=      5-min Rain = 0
KCH1 242212Z 19009KT 32/19 A297 RMK A01 T03170188  RH  046%=      5-min Rain = 0
KCH1 242213Z 18009KT 32/19 A297 RMK A01 T03180187  RH  046%=      5-min Rain = 0
KCH1 242214Z 17011G16KT 32/19 A297 RMK A01 T03180188  RH  046%=      5-min Rain = 0
KCH1 242215Z 17011KT 32/19 A297 RMK A01 T03180186  RH  046%=      5-min Rain = 0
KCH1 242216Z 19011KT 32/19 A297 RMK A01 T03180185  RH  045%=      5-min Rain = 0
KCH1 242217Z 19009KT 32/18 A297 RMK A01 T03160184  RH  045%=      5-min Rain = 0
KCH1 242218Z 19011G17KT 32/19 A297 RMK A01 T03160186  RH  046%=      5-min Rain = 0
KCH1 242219Z 19013KT 31/18 A297 RMK A01 T03140183  RH  046%=      5-min Rain = 0
KCH1 242220Z 18012KT 31/18 A297 RMK A01 T03120184  RH  047%=      5-min Rain = 0
KCH1 242221Z 16011KT 31/19 A297 RMK A01 T03110186  RH  047%=      5-min Rain = 0
KCH1 242222Z 16013KT 31/19 A297 RMK A01 T03110185  RH  047%=      5-min Rain = 0
KCH1 242223Z 17010KT 31/19 A297 RMK A01 T03100186  RH  048%=      5-min Rain = 0
KCH1 242224Z 17010KT 31/19 A297 RMK A01 T03100186  RH  048%=      5-min Rain = 0
KCH1 242225Z 19012KT 31/19 A297 RMK A01 T03100186  RH  048%=      5-min Rain = 0
KCH1 242226Z 18012KT 31/18 A297 RMK A01 T03100184  RH  047%=      5-min Rain = 0
KCH1 242227Z 19012KT 31/18 A297 RMK A01 T03120184  RH  047%=      5-min Rain = 0
KCH1 242228Z 18012KT 31/18 A2969 RMK A01 T03130184  RH  046%=      5-min Rain = 0
KCH1 242229Z 18011KT 31/19 A2969 RMK A01 T03130187  RH  047%=      5-min Rain = 0
KCH1 242230Z 19012KT 32/19 A2969 RMK A01 T03150188  RH  047%=      5-min Rain = 0
KCH1 242231Z 19014KT 32/19 A2969 RMK A01 T03150186  RH  046%=      5-min Rain = 0
KCH1 242232Z 18013KT 32/19 A2969 RMK A01 T03150185  RH  046%=      5-min Rain = 0
KCH1 242233Z 17010G15KT 31/18 A2969 RMK A01 T03130184  RH  046%=      5-min Rain = 0
KCH1 242234Z 17013KT 31/18 A2969 RMK A01 T03120183  RH  046%=      5-min Rain = 0
KCH1 242235Z 17011KT 31/18 A2969 RMK A01 T03110181  RH  046%=      5-min Rain = 0
KCH1 242236Z 19014KT 31/18 A2969 RMK A01 T03110181  RH  046%=      5-min Rain = 0
KCH1 242237Z 18010KT 31/18 A2969 RMK A01 T03100183  RH  047%=      5-min Rain = 0
KCH1 242238Z 17014KT 31/18 A297 RMK A01 T03110184  RH  047%=      5-min Rain = 0
KCH1 242239Z 17015KT 31/18 A297 RMK A01 T03100182  RH  047%=      5-min Rain = 0
KCH1 242240Z 19013KT 31/18 A297 RMK A01 T03070183  RH  047%=      5-min Rain = 0
KCH1 242241Z 18014KT 31/18 A297 RMK A01 T03060182  RH  048%=      5-min Rain = 0
KCH1 242242Z 18013KT 31/18 A297 RMK A01 T03050183  RH  048%=      5-min Rain = 0
KCH1 242243Z 19015KT 31/18 A297 RMK A01 T03050182  RH  048%=      5-min Rain = 0
KCH1 242244Z 19012G18KT 30/18 A297 RMK A01 T03040182  RH  048%=      5-min Rain = 0
KCH1 242245Z 19013KT 30/18 A297 RMK A01 T03040183  RH  048%=      5-min Rain = 0
KCH1 242246Z 20013KT 30/18 A297 RMK A01 T03040182  RH  048%=      5-min Rain = 0
KCH1 242247Z 19012KT 30/18 A2969 RMK A01 T03030182  RH  048%=      5-min Rain = 0
KCH1 242248Z 19014KT 30/18 A2969 RMK A01 T03030183  RH  049%=      5-min Rain = 0
KCH1 242249Z 19012KT 30/18 A2969 RMK A01 T03030182  RH  048%=      5-min Rain = 0
KCH1 242250Z 18011KT 30/18 A2969 RMK A01 T03030184  RH  049%=      5-min Rain = 0
KCH1 242251Z 18009KT 30/19 A2969 RMK A01 T03030186  RH  049%=      5-min Rain = 0
KCH1 242252Z 19011G16KT 30/19 A2969 RMK A01 T03030185  RH  049%=      5-min Rain = 0
KCH1 242253Z 18012KT 30/19 A2969 RMK A01 T03020185  RH  049%=      5-min Rain = 0
KCH1 242254Z 18011KT 30/18 A2969 RMK A01 T03020184  RH  049%=      5-min Rain = 0
KCH1 242255Z 18010KT 30/18 A2969 RMK A01 T03020184  RH  049%=      5-min Rain = 0
KCH1 242256Z 19011KT 30/19 A2969 RMK A01 T03020185  RH  049%=      5-min Rain = 0
KCH1 242257Z 18009KT 30/19 A2969 RMK A01 T03020185  RH  050%=      5-min Rain = 0
KCH1 242258Z 18009KT 30/19 A2969 RMK A01 T03020186  RH  050%=      5-min Rain = 0
KCH1 242259Z 18011KT 30/19 A2969 RMK A01 T03020186  RH  050%=      5-min Rain = 0
KCH1 242300Z 17008KT 30/19 A2969 RMK A01 T03010187  RH  050%=      5-min Rain = 0
KCH1 242301Z 17011KT 30/19 A2969 RMK A01 T03010186  RH  050%=      5-min Rain = 0
KCH1 242302Z 18014KT 30/19 A2969 RMK A01 T03010185  RH  050%=      5-min Rain = 0
KCH1 242303Z 17011KT 30/19 A2969 RMK A01 T03010185  RH  050%=      5-min Rain = 0
KCH1 242304Z 17011KT 30/19 A2969 RMK A01 T03000186  RH  050%=      5-min Rain = 0
KCH1 242305Z 17011KT 30/19 A2969 RMK A01 T03000186  RH  051%=      5-min Rain = 0
KCH1 242306Z 17015G20KT 30/19 A2969 RMK A01 T03000185  RH  050%=      5-min Rain = 0
KCH1 242307Z 17015KT 30/18 A2969 RMK A01 T03000184  RH  050%=      5-min Rain = 0
KCH1 242308Z 17011KT 30/18 A2969 RMK A01 T02990184  RH  050%=      5-min Rain = 0
KCH1 242309Z 17011KT 30/18 A2969 RMK A01 T02990184  RH  050%=      5-min Rain = 0
KCH1 242310Z 17011G16KT 30/19 A2969 RMK A01 T02990185  RH  051%=      5-min Rain = 0
KCH1 242311Z 17012G17KT 30/19 A2969 RMK A01 T02980185  RH  051%=      5-min Rain = 0
KCH1 242312Z 17012KT 30/19 A2969 RMK A01 T02980185  RH  051%=      5-min Rain = 0
KCH1 242313Z 17010KT 30/19 A2969 RMK A01 T02980185  RH  051%=      5-min Rain = 0
KCH1 242314Z 17011KT 30/19 A2969 RMK A01 T02980186  RH  051%=      5-min Rain = 0
KCH1 242315Z 17010G15KT 30/19 A2969 RMK A01 T02980186  RH  051%=      5-min Rain = 0
KCH1 242316Z 17011G16KT 30/19 A2969 RMK A01 T02970185  RH  051%=      5-min Rain = 0
KCH1 242317Z 17011KT 30/19 A2969 RMK A01 T02970185  RH  051%=      5-min Rain = 0
KCH1 242318Z 17012KT 30/19 A2969 RMK A01 T02970185  RH  051%=      5-min Rain = 0
KCH1 242319Z 16010G16KT 30/19 A2969 RMK A01 T02970186  RH  051%=      5-min Rain = 0
KCH1 242320Z 18010KT 30/19 A2969 RMK A01 T02970186  RH  051%=      5-min Rain = 0
KCH1 242321Z 17010KT 30/19 A2969 RMK A01 T02970185  RH  051%=      5-min Rain = 0
KCH1 242322Z 17010G15KT 30/19 A2969 RMK A01 T02960185  RH  051%=      5-min Rain = 0
KCH1 242323Z 18011G16KT 30/19 A2969 RMK A01 T02970186  RH  051%=      5-min Rain = 0
KCH1 242324Z 16009G14KT 30/19 A2969 RMK A01 T02960185  RH  051%=      5-min Rain = 0
KCH1 242325Z 17013KT 30/19 A2969 RMK A01 T02960185  RH  051%=      5-min Rain = 0
KCH1 242326Z 17010KT 30/19 A2969 RMK A01 T02960185  RH  051%=      5-min Rain = 0
KCH1 242327Z 16009KT 30/19 A2968 RMK A01 T02950185  RH  052%=      5-min Rain = 0
KCH1 242328Z 17011KT 30/19 A2968 RMK A01 T02950185  RH  052%=      5-min Rain = 0
KCH1 242329Z 17011KT 29/19 A2968 RMK A01 T02940186  RH  052%=      5-min Rain = 0
KCH1 242330Z 17013KT 29/19 A2968 RMK A01 T02930186  RH  052%=      5-min Rain = 0
KCH1 242331Z 17009KT 29/19 A2968 RMK A01 T02920188  RH  053%=      5-min Rain = 0
KCH1 242332Z 17009KT 29/19 A2968 RMK A01 T02910188  RH  054%=      5-min Rain = 0
KCH1 242333Z 17009KT 29/19 A2968 RMK A01 T02900188  RH  054%=      5-min Rain = 0
KCH1 242334Z 17010KT 29/19 A2967 RMK A01 T02890189  RH  055%=      5-min Rain = 0
KCH1 242335Z 17010KT 29/19 A2967 RMK A01 T02870191  RH  056%=      5-min Rain = 0
KCH1 242336Z 17009KT 29/19 A2967 RMK A01 T02860191  RH  057%=      5-min Rain = 0
KCH1 242337Z 16008KT 28/19 A2967 RMK A01 T02830192  RH  058%=      5-min Rain = 0
KCH1 242338Z 16010KT 28/19 A2967 RMK A01 T02810194  RH  059%=      5-min Rain = 0
KCH1 242339Z 17009KT 28/20 A2967 RMK A01 T02790196  RH  061%=      5-min Rain = 0
KCH1 242340Z 17009KT 28/20 A2967 RMK A01 T02760196  RH  062%=      5-min Rain = 0
KCH1 242341Z 18009KT 27/20 A2967 RMK A01 T02740196  RH  063%=      5-min Rain = 0
KCH1 242342Z 20009KT 27/20 A2967 RMK A01 T02730196  RH  063%=      5-min Rain = 0
KCH1 242343Z 19010KT 27/20 A2967 RMK A01 T02720195  RH  063%=      5-min Rain = 0
KCH1 242344Z 20011KT 27/20 A2967 RMK A01 T02720195  RH  062%=      5-min Rain = 0
KCH1 242345Z 21009KT 27/20 A2967 RMK A01 T02730195  RH  063%=      5-min Rain = 0
KCH1 242346Z 20008KT 27/20 A2967 RMK A01 T02730195  RH  063%=      5-min Rain = 0
KCH1 242347Z 20007KT 27/19 A2967 RMK A01 T02730194  RH  062%=      5-min Rain = 0
KCH1 242348Z 20007KT 27/19 A2967 RMK A01 T02730194  RH  062%=      5-min Rain = 0
KCH1 242349Z 19008KT 27/19 A2967 RMK A01 T02740194  RH  062%=      5-min Rain = 0
KCH1 242350Z 18007KT 27/19 A2966 RMK A01 T02740194  RH  062%=      5-min Rain = 0
KCH1 242351Z 18006KT 27/19 A2966 RMK A01 T02740194  RH  062%=      5-min Rain = 0
KCH1 242352Z 16004KT 27/19 A2966 RMK A01 T02730193  RH  062%=      5-min Rain = 0
KCH1 242353Z 13002KT 27/19 A2966 RMK A01 T02730193  RH  062%=      5-min Rain = 0
KCH1 242354Z 08003KT 27/20 A2966 RMK A01 T02730195  RH  062%=      5-min Rain = 0
KCH1 242355Z 08005KT 27/20 A2966 RMK A01 T02730195  RH  062%=      5-min Rain = 0
KCH1 242356Z 09007KT 27/20 A2966 RMK A01 T02730195  RH  062%=      5-min Rain = 0
KCH1 242357Z 08007KT 27/19 A2966 RMK A01 T02730193  RH  062%=      5-min Rain = 0
KCH1 242358Z 09008KT 27/19 A2966 RMK A01 T02730191  RH  061%=      5-min Rain = 0
KCH1 242359Z 07009KT 28/19 A2965 RMK A01 T02750193  RH  061%=      5-min Rain = 0
KCH1 250000Z 09013KT 28/19 A2965 RMK A01 T02750192  RH  061%=      5-min Rain = 0
KCH1 250001Z 10012KT 28/19 A2965 RMK A01 T02760192  RH  060%=      5-min Rain = 0
KCH1 250002Z 14014KT 28/19 A2965 RMK A01 T02760192  RH  060%=      5-min Rain = 0
KCH1 250003Z 13011KT 28/19 A2965 RMK A01 T02770193  RH  060%=      5-min Rain = 0
KCH1 250004Z 13011KT 28/19 A2965 RMK A01 T02770193  RH  060%=      5-min Rain = 0
KCH1 250005Z 15013KT 28/19 A2965 RMK A01 T02770194  RH  060%=      5-min Rain = 0
KCH1 250006Z 15012KT 28/19 A2965 RMK A01 T02770192  RH  060%=      5-min Rain = 0
KCH1 250007Z 15013KT 28/19 A2965 RMK A01 T02770191  RH  059%=      5-min Rain = 0
KCH1 250008Z 16011KT 28/19 A2965 RMK A01 T02780191  RH  059%=      5-min Rain = 0
KCH1 250009Z 16010KT 28/19 A2965 RMK A01 T02790191  RH  059%=      5-min Rain = 0
KCH1 250010Z 17009KT 28/19 A2965 RMK A01 T02790191  RH  059%=      5-min Rain = 0
KCH1 250011Z 17009G14KT 28/19 A2966 RMK A01 T02790191  RH  059%=      5-min Rain = 0
KCH1 250012Z 18010KT 28/19 A2966 RMK A01 T02800190  RH  058%=      5-min Rain = 0
KCH1 250013Z 19008KT 28/19 A2966 RMK A01 T02800191  RH  058%=      5-min Rain = 0
KCH1 250014Z 20008KT 28/19 A2967 RMK A01 T02800191  RH  058%=      5-min Rain = 0
KCH1 250015Z 20008G13KT 28/19 A2967 RMK A01 T02810191  RH  058%=      5-min Rain = 0
KCH1 250016Z 22009KT 28/19 A2968 RMK A01 T02810191  RH  058%=      5-min Rain = 0
KCH1 250017Z 24014KT 28/19 A2969 RMK A01 T02810191  RH  058%=      5-min Rain = 0
KCH1 250018Z 26024G29KT 28/17 A297 RMK A01 T02790173  RH  053%=      5-min Rain = 0
KCH1 250019Z 26026G33KT 26/15 A297 RMK A01 T02620149  RH  050%=      5-min Rain = 0
KCH1 250020Z 24025G34KT 25/14 A297 RMK A01 T02490142  RH  052%=      5-min Rain = 0
KCH1 250021Z 25020G26KT 24/14 A2971 RMK A01 T02420142  RH  053%=      5-min Rain = 0
KCH1 250022Z 24018G24KT 24/14 A2972 RMK A01 T02380140  RH  054%=      5-min Rain = 0
KCH1 250023Z 24022G31KT 24/14 A2972 RMK A01 T02360138  RH  054%=      5-min Rain = 0
KCH1 250024Z 22028G45KT 23/13 A2971 RMK A01 T02330133  RH  053%=      5-min Rain = 0
KCH1 250025Z 23020G29KT 23/13 A2971 RMK A01 T02300133  RH  054%=      5-min Rain = 0
KCH1 250026Z 24021G30KT 23/13 A2971 RMK A01 T02280133  RH  055%=      5-min Rain = 0
KCH1 250027Z 24024G32KT 23/13 A2971 RMK A01 T02270132  RH  055%=      5-min Rain = 0
KCH1 250028Z 23017G26KT 23/13 A2971 RMK A01 T02260132  RH  055%=      5-min Rain = 0
KCH1 250029Z 21018G24KT 23/13 A2971 RMK A01 T02250131  RH  055%=      5-min Rain = 0
KCH1 250030Z 20014G19KT 22/13 A297 RMK A01 T02240132  RH  056%=      5-min Rain = 0
KCH1 250031Z 22019G33KT 22/13 A297 RMK A01 T02230133  RH  057%=      5-min Rain = 0
KCH1 250032Z 23021G35KT 22/13 A297 RMK A01 T02220132  RH  057%=      5-min Rain = 0
KCH1 250033Z 23025G33KT 22/13 A297 RMK A01 T02220130  RH  056%=      5-min Rain = 0
KCH1 250034Z 22021G39KT 22/13 A2971 RMK A01 T02220128  RH  055%=      5-min Rain = 0
KCH1 250035Z 21025G37KT 22/13 A297 RMK A01 T02230128  RH  055%=      5-min Rain = 0
KCH1 250036Z 20025G37KT 22/13 A2969 RMK A01 T02230129  RH  055%=      5-min Rain = 0
KCH1 250037Z 20029G41KT 22/13 A2969 RMK A01 T02220128  RH  055%=      5-min Rain = 0
KCH1 250038Z 21030G44KT 22/13 A2968 RMK A01 T02210127  RH  055%=      5-min Rain = 0
KCH1 250039Z 20029G42KT 22/13 A2969 RMK A01 T02220126  RH  054%=      5-min Rain = 0
KCH1 250040Z 20034G46KT 22/13 A2967 RMK A01 T02220128  RH  055%=      5-min Rain = 0
KCH1 250041Z 22032G46KT 22/13 A2968 RMK A01 T02220129  RH  056%=      5-min Rain = 0
KCH1 250042Z 23028G38KT 22/13 A2968 RMK A01 T02210131  RH  057%=      5-min Rain = 0
KCH1 250043Z 23024G37KT 22/13 A2969 RMK A01 T02190133  RH  058%=      5-min Rain = 0
KCH1 250044Z 24028G37KT 22/14 A2969 RMK A01 T02170135  RH  060%=      5-min Rain = 0
KCH1 250045Z 24023G33KT 21/14 A2969 RMK A01 T02130139  RH  062%=      5-min Rain = 0
KCH1 250046Z 25025G36KT 21/14 A297 RMK A01 T02090140  RH  065%=      5-min Rain = 0
KCH1 250047Z 24031G42KT 21/14 A297 RMK A01 T02060141  RH  066%=      5-min Rain = 0
KCH1 250048Z 24026G37KT 20/14 A2971 RMK A01 T02040143  RH  068%=      5-min Rain = 0
KCH1 250049Z 23022G30KT 20/15 A2971 RMK A01 T02000145  RH  070%=      5-min Rain = 0.01
KCH1 250050Z 24022G29KT 20/14 A2972 RMK A01 T01990144  RH  071%=      5-min Rain = 0
KCH1 250051Z 24017G22KT 20/15 A2971 RMK A01 T01970146  RH  072%=      5-min Rain = 0
KCH1 250052Z 24020G25KT 20/15 A2971 RMK A01 T01950147  RH  074%=      5-min Rain = 0
KCH1 250053Z 24017G24KT 19/15 A2971 RMK A01 T01940148  RH  075%=      5-min Rain = 0
KCH1 250054Z 24020G28KT 19/15 A297 RMK A01 T01930150  RH  076%=      5-min Rain = 0
KCH1 250055Z 25016G23KT 19/15 A297 RMK A01 T01910150  RH  077%=      5-min Rain = 0
KCH1 250056Z 25015KT 19/15 A297 RMK A01 T01900151  RH  078%=      5-min Rain = 0
KCH1 250057Z 24017G24KT 19/15 A297 RMK A01 T01890152  RH  079%=      5-min Rain = 0
KCH1 250058Z 24017G25KT 19/15 A297 RMK A01 T01880152  RH  080%=      5-min Rain = 0
KCH1 250059Z 24016G21KT 19/15 A297 RMK A01 T01870152  RH  080%=      5-min Rain = 0
KCH1 250100Z 24018G23KT 19/15 A297 RMK A01 T01870152  RH  080%=      5-min Rain = 0
KCH1 250101Z 24017G27KT 19/15 A2971 RMK A01 T01870151  RH  080%=      5-min Rain = 0.01
KCH1 250102Z 24018G25KT 19/15 A2971 RMK A01 T01870150  RH  079%=      5-min Rain = 0
KCH1 250103Z 25017G22KT 19/15 A2971 RMK A01 T01880150  RH  078%=      5-min Rain = 0
KCH1 250104Z 24018G27KT 19/15 A2971 RMK A01 T01880149  RH  078%=      5-min Rain = 0
KCH1 250105Z 25017G25KT 19/15 A2971 RMK A01 T01890149  RH  077%=      5-min Rain = 0
KCH1 250106Z 25016G25KT 19/15 A2971 RMK A01 T01900148  RH  077%=      5-min Rain = 0
KCH1 250107Z 25015G22KT 19/15 A2972 RMK A01 T01910148  RH  076%=      5-min Rain = 0
KCH1 250108Z 25015KT 19/15 A2972 RMK A01 T01910148  RH  076%=      5-min Rain = 0
KCH1 250109Z 24015G25KT 19/15 A2972 RMK A01 T01920149  RH  076%=      5-min Rain = 0
KCH1 250110Z 24016KT 19/15 A2972 RMK A01 T01920147  RH  075%=      5-min Rain = 0
KCH1 250111Z 24016KT 19/15 A2973 RMK A01 T01930146  RH  074%=      5-min Rain = 0
KCH1 250112Z 23016G24KT 19/15 A2973 RMK A01 T01940146  RH  074%=      5-min Rain = 0
KCH1 250113Z 23014G20KT 20/15 A2973 RMK A01 T01950145  RH  073%=      5-min Rain = 0
KCH1 250114Z 24013G19KT 20/15 A2973 RMK A01 T01950147  RH  074%=      5-min Rain = 0
KCH1 250115Z 24012G17KT 20/15 A2973 RMK A01 T01950147  RH  074%=      5-min Rain = 0
KCH1 250116Z 24015G21KT 20/15 A2973 RMK A01 T01950145  RH  073%=      5-min Rain = 0.01
KCH1 250117Z 24015G23KT 20/14 A2973 RMK A01 T01960143  RH  072%=      5-min Rain = 0
KCH1 250118Z 23015G21KT 20/14 A2973 RMK A01 T01970141  RH  070%=      5-min Rain = 0
KCH1 250119Z 24013KT 20/14 A2974 RMK A01 T01990143  RH  070%=      5-min Rain = 0
KCH1 250120Z 24012G17KT 20/14 A2974 RMK A01 T01980144  RH  071%=      5-min Rain = 0
KCH1 250121Z 23016G21KT 20/15 A2974 RMK A01 T01970145  RH  072%=      5-min Rain = 0
KCH1 250122Z 24013G18KT 20/15 A2974 RMK A01 T01960147  RH  073%=      5-min Rain = 0
KCH1 250123Z 23014G22KT 19/15 A2974 RMK A01 T01940147  RH  074%=      5-min Rain = 0
KCH1 250124Z 24017G27KT 19/14 A2974 RMK A01 T01940144  RH  073%=      5-min Rain = 0
KCH1 250125Z 23016G24KT 20/15 A2974 RMK A01 T01950145  RH  073%=      5-min Rain = 0
KCH1 250126Z 24014G22KT 20/15 A2974 RMK A01 T01950146  RH  073%=      5-min Rain = 0
KCH1 250127Z 23015G23KT 20/15 A2974 RMK A01 T01950145  RH  073%=      5-min Rain = 0
KCH1 250128Z 23017KT 20/15 A2974 RMK A01 T01950146  RH  073%=      5-min Rain = 0
KCH1 250129Z 23014G21KT 19/15 A2974 RMK A01 T01940146  RH  074%=      5-min Rain = 0
KCH1 250130Z 24018G24KT 19/15 A2974 RMK A01 T01930145  RH  074%=      5-min Rain = 0
KCH1 250131Z 23018G29KT 19/14 A2974 RMK A01 T01930144  RH  073%=      5-min Rain = 0
KCH1 250132Z 23015G22KT 19/14 A2974 RMK A01 T01930144  RH  073%=      5-min Rain = 0
KCH1 250133Z 23016G24KT 19/15 A2974 RMK A01 T01930146  RH  074%=      5-min Rain = 0
KCH1 250134Z 24021G28KT 19/14 A2974 RMK A01 T01920144  RH  074%=      5-min Rain = 0.01
KCH1 250135Z 24014G19KT 19/15 A2974 RMK A01 T01920146  RH  075%=      5-min Rain = 0
KCH1 250136Z 24015G20KT 19/15 A2974 RMK A01 T01900148  RH  076%=      5-min Rain = 0
KCH1 250137Z 23013G20KT 19/15 A2974 RMK A01 T01890148  RH  077%=      5-min Rain = 0
KCH1 250138Z 24016G22KT 19/15 A2974 RMK A01 T01870150  RH  079%=      5-min Rain = 0
KCH1 250139Z 23015KT 19/15 A2974 RMK A01 T01860149  RH  079%=      5-min Rain = 0
KCH1 250140Z 24014G21KT 19/15 A2974 RMK A01 T01850150  RH  080%=      5-min Rain = 0.01
KCH1 250141Z 24014G19KT 18/15 A2974 RMK A01 T01840151  RH  081%=      5-min Rain = 0
KCH1 250142Z 23017G22KT 18/15 A2974 RMK A01 T01830149  RH  080%=      5-min Rain = 0
KCH1 250143Z 24016G23KT 18/15 A2974 RMK A01 T01830149  RH  080%=      5-min Rain = 0
KCH1 250144Z 24016G21KT 18/15 A2974 RMK A01 T01830149  RH  080%=      5-min Rain = 0
KCH1 250145Z 24013G20KT 18/15 A2974 RMK A01 T01830151  RH  082%=      5-min Rain = 0.01
KCH1 250146Z 24016G22KT 18/15 A2974 RMK A01 T01820151  RH  082%=      5-min Rain = 0
KCH1 250147Z 23015G20KT 18/15 A2974 RMK A01 T01810151  RH  083%=      5-min Rain = 0
KCH1 250148Z 23014KT 18/15 A2974 RMK A01 T01810152  RH  084%=      5-min Rain = 0.01
KCH1 250149Z 24014G19KT 18/15 A2974 RMK A01 T01790153  RH  085%=      5-min Rain = 0
KCH1 250150Z 23014G20KT 18/15 A2974 RMK A01 T01780153  RH  085%=      5-min Rain = 0
KCH1 250151Z 23015KT 18/15 A2973 RMK A01 T01780153  RH  085%=      5-min Rain = 0
KCH1 250152Z 23013G21KT 18/15 A2973 RMK A01 T01770154  RH  086%=      5-min Rain = 0.01
KCH1 250153Z 23016KT 18/15 A2973 RMK A01 T01760153  RH  086%=      5-min Rain = 0
KCH1 250154Z 23014G22KT 18/15 A2973 RMK A01 T01760152  RH  086%=      5-min Rain = 0.01
KCH1 250155Z 23013G19KT 18/15 A2973 RMK A01 T01760154  RH  086%=      5-min Rain = 0
KCH1 250156Z 23014KT 18/15 A2973 RMK A01 T01760154  RH  087%=      5-min Rain = 0
KCH1 250157Z 24011KT 18/15 A2973 RMK A01 T01760154  RH  087%=      5-min Rain = 0.01
KCH1 250158Z 25011KT 18/15 A2972 RMK A01 T01750154  RH  087%=      5-min Rain = 0
KCH1 250159Z 25010G15KT 18/16 A2972 RMK A01 T01750155  RH  088%=      5-min Rain = 0
KCH1 250200Z 25009G14KT 17/16 A2972 RMK A01 T01740155  RH  088%=      5-min Rain = 0.01
KCH1 250201Z 25011KT 17/15 A2971 RMK A01 T01740154  RH  088%=      5-min Rain = 0
KCH1 250202Z 26010KT 17/15 A2971 RMK A01 T01740153  RH  087%=      5-min Rain = 0
KCH1 250203Z 26010KT 18/15 A2971 RMK A01 T01750153  RH  087%=      5-min Rain = 0
KCH1 250204Z 26007KT 18/15 A297 RMK A01 T01750154  RH  087%=      5-min Rain = 0
KCH1 250205Z 26007KT 17/16 A297 RMK A01 T01740156  RH  089%=      5-min Rain = 0.01
KCH1 250206Z 27007KT 17/16 A297 RMK A01 T01740155  RH  089%=      5-min Rain = 0
KCH1 250207Z 28006KT 17/16 A2969 RMK A01 T01730156  RH  089%=      5-min Rain = 0
KCH1 250208Z 28007KT 17/16 A2969 RMK A01 T01730156  RH  090%=      5-min Rain = 0.01
KCH1 250209Z 30005KT 17/16 A2969 RMK A01 T01720156  RH  090%=      5-min Rain = 0
KCH1 250210Z 30005KT 17/16 A2968 RMK A01 T01720156  RH  090%=      5-min Rain = 0
KCH1 250211Z 31005KT 17/16 A2968 RMK A01 T01720157  RH  091%=      5-min Rain = 0.01
KCH1 250212Z 33005KT 17/16 A2968 RMK A01 T01720157  RH  091%=      5-min Rain = 0
KCH1 250213Z 33005KT 17/16 A2968 RMK A01 T01720159  RH  092%=      5-min Rain = 0
KCH1 250214Z 33006KT 17/16 A2967 RMK A01 T01720160  RH  093%=      5-min Rain = 0
KCH1 250215Z 34006KT 17/16 A2967 RMK A01 T01720162  RH  094%=      5-min Rain = 0
KCH1 250216Z 34006KT 17/16 A2967 RMK A01 T01720163  RH  094%=      5-min Rain = 0
KCH1 250217Z 35007KT 17/16 A2967 RMK A01 T01720164  RH  095%=      5-min Rain = 0
KCH1 250218Z 35007KT 17/16 A2967 RMK A01 T01720164  RH  095%=      5-min Rain = 0.01
KCH1 250219Z 36008KT 17/17 A2967 RMK A01 T01720165  RH  096%=      5-min Rain = 0
KCH1 250220Z 01007KT 17/17 A2966 RMK A01 T01720165  RH  096%=      5-min Rain = 0
KCH1 250221Z 01007KT 17/17 A2966 RMK A01 T01720166  RH  096%=      5-min Rain = 0
KCH1 250222Z 01006KT 17/17 A2966 RMK A01 T01720166  RH  097%=      5-min Rain = 0
KCH1 250223Z 02008KT 17/17 A2966 RMK A01 T01720167  RH  097%=      5-min Rain = 0
KCH1 250224Z 01007KT 17/17 A2965 RMK A01 T01720167  RH  097%=      5-min Rain = 0
KCH1 250225Z 02008KT 17/17 A2965 RMK A01 T01710167  RH  097%=      5-min Rain = 0
KCH1 250226Z 02008KT 17/17 A2965 RMK A01 T01710167  RH  097%=      5-min Rain = 0
KCH1 250227Z 02008KT 17/17 A2965 RMK A01 T01710166  RH  097%=      5-min Rain = 0
KCH1 250228Z 02009KT 17/17 A2964 RMK A01 T01710165  RH  096%=      5-min Rain = 0
KCH1 250229Z 02007KT 17/17 A2964 RMK A01 T01710165  RH  096%=      5-min Rain = 0
KCH1 250230Z 03007KT 17/16 A2964 RMK A01 T01710164  RH  096%=      5-min Rain = 0
KCH1 250231Z 05007KT 17/17 A2964 RMK A01 T01710165  RH  096%=      5-min Rain = 0
KCH1 250232Z 05008KT 17/17 A2964 RMK A01 T01710165  RH  097%=      5-min Rain = 0
KCH1 250233Z 04007KT 17/17 A2964 RMK A01 T01710166  RH  097%=      5-min Rain = 0
KCH1 250234Z 04007KT 17/17 A2964 RMK A01 T01700166  RH  097%=      5-min Rain = 0
KCH1 250235Z 03007KT 17/17 A2964 RMK A01 T01700167  RH  098%=      5-min Rain = 0
KCH1 250236Z 03006KT 17/17 A2964 RMK A01 T01700167  RH  098%=      5-min Rain = 0
KCH1 250237Z 02006KT 17/17 A2964 RMK A01 T01700167  RH  098%=      5-min Rain = 0
KCH1 250238Z 03005KT 17/17 A2964 RMK A01 T01700167  RH  098%=      5-min Rain = 0
KCH1 250239Z 02006KT 17/17 A2964 RMK A01 T01700166  RH  098%=      5-min Rain = 0
KCH1 250240Z 02006KT 17/17 A2964 RMK A01 T01700165  RH  097%=      5-min Rain = 0
KCH1 250241Z 03005KT 17/16 A2964 RMK A01 T01700164  RH  096%=      5-min Rain = 0
KCH1 250242Z 04006KT 17/17 A2964 RMK A01 T01710165  RH  096%=      5-min Rain = 0
KCH1 250243Z 04007KT 17/17 A2964 RMK A01 T01710165  RH  096%=      5-min Rain = 0
KCH1 250244Z 04007KT 17/17 A2964 RMK A01 T01710166  RH  097%=      5-min Rain = 0
KCH1 250245Z 03007KT 17/17 A2964 RMK A01 T01710166  RH  097%=      5-min Rain = 0
KCH1 250246Z 04007KT 17/17 A2964 RMK A01 T01710167  RH  097%=      5-min Rain = 0
KCH1 250247Z 04006KT 17/17 A2964 RMK A01 T01710167  RH  097%=      5-min Rain = 0
KCH1 250248Z 04006KT 17/17 A2964 RMK A01 T01710167  RH  097%=      5-min Rain = 0
KCH1 250249Z 04006KT 17/17 A2964 RMK A01 T01710168  RH  098%=      5-min Rain = 0
KCH1 250250Z 04007KT 17/17 A2964 RMK A01 T01720169  RH  098%=      5-min Rain = 0
KCH1 250251Z 04007KT 17/17 A2964 RMK A01 T01720169  RH  098%=      5-min Rain = 0
KCH1 250252Z 04008KT 17/17 A2965 RMK A01 T01720169  RH  098%=      5-min Rain = 0
KCH1 250253Z 05007KT 17/17 A2965 RMK A01 T01730168  RH  097%=      5-min Rain = 0
KCH1 250254Z 04009KT 17/17 A2965 RMK A01 T01740167  RH  096%=      5-min Rain = 0
KCH1 250255Z 05008KT 17/17 A2966 RMK A01 T01740166  RH  095%=      5-min Rain = 0
KCH1 250256Z 04007KT 18/17 A2966 RMK A01 T01760165  RH  094%=      5-min Rain = 0
KCH1 250257Z 05006KT 18/17 A2966 RMK A01 T01760165  RH  093%=      5-min Rain = 0
KCH1 250258Z 04006KT 18/16 A2966 RMK A01 T01760164  RH  092%=      5-min Rain = 0
KCH1 250259Z 04004KT 18/16 A2966 RMK A01 T01770164  RH  092%=      5-min Rain = 0
KCH1 250300Z 05003KT 18/16 A2967 RMK A01 T01770164  RH  092%=      5-min Rain = 0
KCH1 250301Z 04001KT 18/16 A2967 RMK A01 T01770164  RH  092%=      5-min Rain = 0
KCH1 250302Z 09001KT 18/16 A2967 RMK A01 T01780164  RH  092%=      5-min Rain = 0
KCH1 250303Z 10000KT 18/16 A2968 RMK A01 T01780164  RH  091%=      5-min Rain = 0
KCH1 250304Z 17001KT 18/16 A2968 RMK A01 T01780164  RH  092%=      5-min Rain = 0
KCH1 250305Z 17002KT 18/17 A2969 RMK A01 T01780166  RH  093%=      5-min Rain = 0
KCH1 250306Z 15002KT 18/17 A2969 RMK A01 T01780167  RH  093%=      5-min Rain = 0
KCH1 250307Z 20000KT 18/17 A2969 RMK A01 T01780168  RH  094%=      5-min Rain = 0
KCH1 250308Z 26001KT 18/17 A2969 RMK A01 T01780170  RH  095%=      5-min Rain = 0
KCH1 250309Z 28001KT 18/17 A2969 RMK A01 T01780170  RH  095%=      5-min Rain = 0
KCH1 250310Z 27001KT 18/17 A297 RMK A01 T01770169  RH  095%=      5-min Rain = 0
KCH1 250311Z 03001KT 18/17 A297 RMK A01 T01770169  RH  095%=      5-min Rain = 0
KCH1 250312Z 36002KT 18/17 A297 RMK A01 T01770166  RH  093%=      5-min Rain = 0
KCH1 250313Z 35003KT 18/16 A297 RMK A01 T01770162  RH  090%=      5-min Rain = 0
KCH1 250314Z 01004KT 18/16 A2971 RMK A01 T01790161  RH  089%=      5-min Rain = 0
KCH1 250315Z 35005KT 18/16 A2971 RMK A01 T01800162  RH  089%=      5-min Rain = 0
KCH1 250316Z 00006KT 18/16 A2971 RMK A01 T01810163  RH  089%=      5-min Rain = 0
KCH1 250317Z 01007KT 18/17 A2972 RMK A01 T01810165  RH  090%=      5-min Rain = 0
KCH1 250318Z 02007KT 18/17 A2973 RMK A01 T01800166  RH  091%=      5-min Rain = 0
KCH1 250319Z 03010KT 18/17 A2975 RMK A01 T01790166  RH  092%=      5-min Rain = 0
KCH1 250320Z 02020G31KT 18/17 A2976 RMK A01 T01790167  RH  093%=      5-min Rain = 0
KCH1 250321Z 02020G30KT 18/16 A2976 RMK A01 T01790163  RH  090%=      5-min Rain = 0
KCH1 250322Z 03020KT 18/16 A2976 RMK A01 T01790161  RH  089%=      5-min Rain = 0
KCH1 250323Z 04018G25KT 18/16 A2976 RMK A01 T01800160  RH  088%=      5-min Rain = 0
KCH1 250324Z 04021G28KT 18/16 A2976 RMK A01 T01800160  RH  088%=      5-min Rain = 0
KCH1 250325Z 03022G27KT 18/16 A2976 RMK A01 T01800159  RH  087%=      5-min Rain = 0
KCH1 250326Z 04018G26KT 18/16 A2976 RMK A01 T01810160  RH  088%=      5-min Rain = 0
KCH1 250327Z 04015G20KT 18/16 A2976 RMK A01 T01800162  RH  089%=      5-min Rain = 0
KCH1 250328Z 04016KT 18/16 A2976 RMK A01 T01790162  RH  090%=      5-min Rain = 0
KCH1 250329Z 04016KT 18/16 A2976 RMK A01 T01780163  RH  091%=      5-min Rain = 0
KCH1 250330Z 04019G25KT 18/16 A2976 RMK A01 T01770163  RH  091%=      5-min Rain = 0
KCH1 250331Z 04020G29KT 18/16 A2976 RMK A01 T01770162  RH  091%=      5-min Rain = 0
KCH1 250332Z 04017G25KT 18/16 A2976 RMK A01 T01770162  RH  091%=      5-min Rain = 0
KCH1 250333Z 04018KT 18/16 A2976 RMK A01 T01770163  RH  092%=      5-min Rain = 0
KCH1 250334Z 04017G22KT 18/16 A2976 RMK A01 T01770163  RH  092%=      5-min Rain = 0
KCH1 250335Z 04017G25KT 18/16 A2976 RMK A01 T01770163  RH  092%=      5-min Rain = 0
KCH1 250336Z 04020G25KT 18/16 A2976 RMK A01 T01770163  RH  091%=      5-min Rain = 0
KCH1 250337Z 04020G25KT 18/16 A2977 RMK A01 T01770162  RH  091%=      5-min Rain = 0
KCH1 250338Z 03018G24KT 18/16 A2977 RMK A01 T01770163  RH  091%=      5-min Rain = 0
KCH1 250339Z 03018G23KT 18/16 A2977 RMK A01 T01770162  RH  091%=      5-min Rain = 0
KCH1 250340Z 03017G23KT 18/16 A2977 RMK A01 T01770162  RH  091%=      5-min Rain = 0
KCH1 250341Z 04014G19KT 18/16 A2978 RMK A01 T01770163  RH  091%=      5-min Rain = 0
KCH1 250342Z 04019G25KT 18/16 A2978 RMK A01 T01770163  RH  091%=      5-min Rain = 0
KCH1 250343Z 04016KT 18/16 A2978 RMK A01 T01770162  RH  091%=      5-min Rain = 0
KCH1 250344Z 04015KT 18/16 A2979 RMK A01 T01770163  RH  091%=      5-min Rain = 0
KCH1 250345Z 04016G24KT 18/16 A2979 RMK A01 T01770162  RH  091%=      5-min Rain = 0
KCH1 250346Z 03017G23KT 18/16 A2979 RMK A01 T01770162  RH  090%=      5-min Rain = 0
KCH1 250347Z 03019G24KT 18/16 A2979 RMK A01 T01780161  RH  090%=      5-min Rain = 0
KCH1 250348Z 03016G21KT 18/16 A2979 RMK A01 T01780161  RH  090%=      5-min Rain = 0
KCH1 250349Z 03014G19KT 18/16 A298 RMK A01 T01780161  RH  090%=      5-min Rain = 0
KCH1 250350Z 03015G20KT 18/16 A298 RMK A01 T01790162  RH  090%=      5-min Rain = 0
KCH1 250351Z 03011G18KT 18/16 A298 RMK A01 T01780162  RH  090%=      5-min Rain = 0
KCH1 250352Z 03016G24KT 18/16 A298 RMK A01 T01780162  RH  090%=      5-min Rain = 0
KCH1 250353Z 02014G19KT 18/16 A2981 RMK A01 T01780160  RH  089%=      5-min Rain = 0
KCH1 250354Z 03015G24KT 18/16 A2981 RMK A01 T01780161  RH  089%=      5-min Rain = 0
KCH1 250355Z 03014KT 18/16 A2981 RMK A01 T01790160  RH  089%=      5-min Rain = 0
KCH1 250356Z 03016KT 18/16 A2981 RMK A01 T01790160  RH  088%=      5-min Rain = 0
KCH1 250357Z 04011KT 18/16 A2981 RMK A01 T01800160  RH  088%=      5-min Rain = 0
KCH1 250358Z 03011KT 18/16 A2981 RMK A01 T01790160  RH  089%=      5-min Rain = 0
KCH1 250359Z 03011KT 18/16 A2981 RMK A01 T01790161  RH  089%=      5-min Rain = 0
KCH1 250400Z 03013KT 18/16 A2981 RMK A01 T01790161  RH  089%=      5-min Rain = 0
KCH1 250401Z 03012KT 18/16 A2981 RMK A01 T01790160  RH  088%=      5-min Rain = 0
KCH1 250402Z 03014G19KT 18/16 A2981 RMK A01 T01800160  RH  088%=      5-min Rain = 0
KCH1 250403Z 04016G22KT 18/16 A2981 RMK A01 T01800159  RH  087%=      5-min Rain = 0
KCH1 250404Z 03014G19KT 18/16 A2982 RMK A01 T01800158  RH  087%=      5-min Rain = 0
KCH1 250405Z 03018G23KT 18/16 A2982 RMK A01 T01800158  RH  087%=      5-min Rain = 0
KCH1 250406Z 04013KT 18/16 A2982 RMK A01 T01800159  RH  087%=      5-min Rain = 0
KCH1 250407Z 03013G20KT 18/16 A2982 RMK A01 T01800160  RH  088%=      5-min Rain = 0
KCH1 250408Z 03014G20KT 18/16 A2982 RMK A01 T01800159  RH  088%=      5-min Rain = 0
KCH1 250409Z 03014G20KT 18/16 A2982 RMK A01 T01800159  RH  088%=      5-min Rain = 0
KCH1 250410Z 04011KT 18/16 A2982 RMK A01 T01800159  RH  087%=      5-min Rain = 0
KCH1 250411Z 04012G18KT 18/16 A2982 RMK A01 T01800159  RH  087%=      5-min Rain = 0
KCH1 250412Z 04016G21KT 18/16 A2982 RMK A01 T01800159  RH  087%=      5-min Rain = 0
KCH1 250413Z 04016G23KT 18/16 A2982 RMK A01 T01810158  RH  086%=      5-min Rain = 0
KCH1 250414Z 04015G21KT 18/16 A2982 RMK A01 T01820159  RH  087%=      5-min Rain = 0
KCH1 250415Z 04017G24KT 18/16 A2982 RMK A01 T01820159  RH  086%=      5-min Rain = 0
KCH1 250416Z 03018G27KT 18/16 A2982 RMK A01 T01820158  RH  086%=      5-min Rain = 0
KCH1 250417Z 04016G23KT 18/16 A2982 RMK A01 T01820158  RH  085%=      5-min Rain = 0
KCH1 250418Z 03014G20KT 18/16 A2983 RMK A01 T01830157  RH  085%=      5-min Rain = 0
KCH1 250419Z 03013G18KT 18/16 A2983 RMK A01 T01830158  RH  085%=      5-min Rain = 0
KCH1 250420Z 04010G15KT 18/16 A2983 RMK A01 T01830158  RH  085%=      5-min Rain = 0
KCH1 250421Z 03011KT 18/16 A2983 RMK A01 T01830159  RH  086%=      5-min Rain = 0
KCH1 250422Z 04011KT 18/16 A2983 RMK A01 T01830159  RH  086%=      5-min Rain = 0
KCH1 250423Z 03014KT 18/16 A2983 RMK A01 T01830158  RH  086%=      5-min Rain = 0
KCH1 250424Z 04016KT 18/16 A2983 RMK A01 T01830158  RH  086%=      5-min Rain = 0
KCH1 250425Z 05017KT 18/16 A2984 RMK A01 T01830159  RH  086%=      5-min Rain = 0
KCH1 250426Z 05016KT 18/16 A2984 RMK A01 T01820159  RH  086%=      5-min Rain = 0
KCH1 250427Z 05018G25KT 18/16 A2984 RMK A01 T01820159  RH  087%=      5-min Rain = 0
KCH1 250428Z 06016G21KT 18/16 A2983 RMK A01 T01820160  RH  087%=      5-min Rain = 0
KCH1 250429Z 07018KT 18/16 A2983 RMK A01 T01810160  RH  088%=      5-min Rain = 0
KCH1 250430Z 07019G25KT 18/16 A2983 RMK A01 T01810160  RH  088%=      5-min Rain = 0
KCH1 250431Z 07020KT 18/16 A2983 RMK A01 T01800159  RH  088%=      5-min Rain = 0
KCH1 250432Z 07017KT 18/16 A2983 RMK A01 T01810160  RH  088%=      5-min Rain = 0
KCH1 250433Z 07017G23KT 18/16 A2983 RMK A01 T01800160  RH  088%=      5-min Rain = 0
KCH1 250434Z 08019KT 18/16 A2982 RMK A01 T01800159  RH  087%=      5-min Rain = 0
KCH1 250435Z 07021KT 18/16 A2982 RMK A01 T01800159  RH  087%=      5-min Rain = 0
KCH1 250436Z 07022G29KT 18/16 A2982 RMK A01 T01800159  RH  087%=      5-min Rain = 0
KCH1 250437Z 07021KT 18/16 A2982 RMK A01 T01810158  RH  087%=      5-min Rain = 0
KCH1 250438Z 08022G27KT 18/16 A2982 RMK A01 T01810158  RH  087%=      5-min Rain = 0
KCH1 250439Z 07021G27KT 18/16 A2981 RMK A01 T01810158  RH  087%=      5-min Rain = 0
KCH1 250440Z 07021KT 18/16 A2981 RMK A01 T01810159  RH  087%=      5-min Rain = 0
KCH1 250441Z 07020KT 18/16 A2981 RMK A01 T01810160  RH  088%=      5-min Rain = 0
KCH1 250442Z 07020KT 18/16 A2981 RMK A01 T01790159  RH  088%=      5-min Rain = 0
KCH1 250443Z 07020G25KT 18/16 A2981 RMK A01 T01800159  RH  088%=      5-min Rain = 0
KCH1 250444Z 06021KT 18/16 A2981 RMK A01 T01790159  RH  088%=      5-min Rain = 0
KCH1 250445Z 05019G25KT 18/16 A2981 RMK A01 T01790159  RH  088%=      5-min Rain = 0.01
KCH1 250446Z 05018G23KT 18/16 A2981 RMK A01 T01780160  RH  089%=      5-min Rain = 0
KCH1 250447Z 05017G22KT 18/16 A2981 RMK A01 T01770161  RH  091%=      5-min Rain = 0
KCH1 250448Z 05018KT 18/16 A298 RMK A01 T01760162  RH  091%=      5-min Rain = 0.01
KCH1 250449Z 04016G23KT 18/16 A298 RMK A01 T01750162  RH  092%=      5-min Rain = 0
KCH1 250450Z 05017G23KT 17/16 A2979 RMK A01 T01740163  RH  094%=      5-min Rain = 0
KCH1 250451Z 05017KT 17/16 A2979 RMK A01 T01730163  RH  094%=      5-min Rain = 0
KCH1 250452Z 05018KT 17/16 A2979 RMK A01 T01720164  RH  095%=      5-min Rain = 0
KCH1 250453Z 06017G24KT 17/16 A2979 RMK A01 T01720163  RH  095%=      5-min Rain = 0
KCH1 250454Z 06020KT 17/16 A2978 RMK A01 T01720164  RH  095%=      5-min Rain = 0
KCH1 250455Z 06018G23KT 17/16 A2978 RMK A01 T01710163  RH  095%=      5-min Rain = 0
KCH1 250456Z 07018G26KT 17/16 A2978 RMK A01 T01710163  RH  095%=      5-min Rain = 0
KCH1 250457Z 06018G23KT 17/16 A2978 RMK A01 T01710163  RH  095%=      5-min Rain = 0
KCH1 250458Z 06018G23KT 17/16 A2978 RMK A01 T01710163  RH  095%=      5-min Rain = 0
KCH1 250459Z 06017G23KT 17/16 A2978 RMK A01 T01710163  RH  095%=      5-min Rain = 0

Page generated in 0.1797 seconds.